<?xml version="1.0" encoding="UTF-8" standalone="no" ?>
<gpx xmlns="http://www.topografix.com/GPX/1/1" xmlns:xsi="http://www.w3.org/2001/XMLSchema-instance" xsi:schemaLocation="http://www.topografix.com/GPX/1/1 http://www.topografix.com/GPX/1/1/gpx.xsd" version="1.1" creator="VisuGPX - https://www.visugpx.com">
  <metadata>
    <name>Albertville - Abbaye et fort de Tamié - 123 - UtagawaVTT.com</name>
  </metadata>
  <trk>
    <name><![CDATA[Albertville - Abbaye et fort de Tamié - 123 - UtagawaVTT.com]]></name>
    <trkseg>
      <trkpt lat="45.66336" lon="6.37261">
        <ele>337</ele>
        <time>2005-05-11T06:16:20Z</time>
      </trkpt>
      <trkpt lat="45.66357" lon="6.37247">
        <ele>331</ele>
        <time>2005-05-11T06:18:18Z</time>
      </trkpt>
      <trkpt lat="45.66381" lon="6.37236">
        <ele>331</ele>
        <time>2005-05-11T06:18:24Z</time>
      </trkpt>
      <trkpt lat="45.66681" lon="6.37124">
        <ele>333</ele>
        <time>2005-05-11T06:19:24Z</time>
      </trkpt>
      <trkpt lat="45.667" lon="6.37121">
        <ele>333</ele>
        <time>2005-05-11T06:19:28Z</time>
      </trkpt>
      <trkpt lat="45.66709" lon="6.37115">
        <ele>332</ele>
        <time>2005-05-11T06:19:30Z</time>
      </trkpt>
      <trkpt lat="45.66713" lon="6.37102">
        <ele>333</ele>
        <time>2005-05-11T06:19:32Z</time>
      </trkpt>
      <trkpt lat="45.6671" lon="6.3709">
        <ele>333</ele>
        <time>2005-05-11T06:19:34Z</time>
      </trkpt>
      <trkpt lat="45.66702" lon="6.37082">
        <ele>333</ele>
        <time>2005-05-11T06:19:36Z</time>
      </trkpt>
      <trkpt lat="45.66676" lon="6.37064">
        <ele>333</ele>
        <time>2005-05-11T06:19:42Z</time>
      </trkpt>
      <trkpt lat="45.6664" lon="6.37031">
        <ele>331</ele>
        <time>2005-05-11T06:19:50Z</time>
      </trkpt>
      <trkpt lat="45.66483" lon="6.36939">
        <ele>332</ele>
        <time>2005-05-11T06:20:22Z</time>
      </trkpt>
      <trkpt lat="45.66464" lon="6.36931">
        <ele>334</ele>
        <time>2005-05-11T06:20:28Z</time>
      </trkpt>
      <trkpt lat="45.66133" lon="6.36747">
        <ele>332</ele>
        <time>2005-05-11T06:21:40Z</time>
      </trkpt>
      <trkpt lat="45.66115" lon="6.36735">
        <ele>332</ele>
        <time>2005-05-11T06:21:44Z</time>
      </trkpt>
      <trkpt lat="45.66108" lon="6.36736">
        <ele>334</ele>
        <time>2005-05-11T06:21:47Z</time>
      </trkpt>
      <trkpt lat="45.66097" lon="6.36732">
        <ele>334</ele>
        <time>2005-05-11T06:21:51Z</time>
      </trkpt>
      <trkpt lat="45.66093" lon="6.36721">
        <ele>334</ele>
        <time>2005-05-11T06:21:59Z</time>
      </trkpt>
      <trkpt lat="45.66109" lon="6.36707">
        <ele>334</ele>
        <time>2005-05-11T06:22:06Z</time>
      </trkpt>
      <trkpt lat="45.6621" lon="6.36605">
        <ele>336</ele>
        <time>2005-05-11T06:22:36Z</time>
      </trkpt>
      <trkpt lat="45.66284" lon="6.36526">
        <ele>337</ele>
        <time>2005-05-11T06:22:57Z</time>
      </trkpt>
      <trkpt lat="45.66314" lon="6.36497">
        <ele>339</ele>
        <time>2005-05-11T06:23:06Z</time>
      </trkpt>
      <trkpt lat="45.66367" lon="6.36435">
        <ele>341</ele>
        <time>2005-05-11T06:23:24Z</time>
      </trkpt>
      <trkpt lat="45.66384" lon="6.36418">
        <ele>343</ele>
        <time>2005-05-11T06:24:02Z</time>
      </trkpt>
      <trkpt lat="45.66384" lon="6.36405">
        <ele>343</ele>
        <time>2005-05-11T06:24:06Z</time>
      </trkpt>
      <trkpt lat="45.6638" lon="6.36391">
        <ele>343</ele>
        <time>2005-05-11T06:24:09Z</time>
      </trkpt>
      <trkpt lat="45.6623" lon="6.36057">
        <ele>349</ele>
        <time>2005-05-11T06:25:12Z</time>
      </trkpt>
      <trkpt lat="45.66234" lon="6.36041">
        <ele>348</ele>
        <time>2005-05-11T06:25:15Z</time>
      </trkpt>
      <trkpt lat="45.66262" lon="6.36008">
        <ele>348</ele>
        <time>2005-05-11T06:25:23Z</time>
      </trkpt>
      <trkpt lat="45.6628" lon="6.35993">
        <ele>348</ele>
        <time>2005-05-11T06:25:27Z</time>
      </trkpt>
      <trkpt lat="45.66348" lon="6.35923">
        <ele>350</ele>
        <time>2005-05-11T06:25:45Z</time>
      </trkpt>
      <trkpt lat="45.66412" lon="6.35855">
        <ele>353</ele>
        <time>2005-05-11T06:26:03Z</time>
      </trkpt>
      <trkpt lat="45.66483" lon="6.35785">
        <ele>356</ele>
        <time>2005-05-11T06:26:24Z</time>
      </trkpt>
      <trkpt lat="45.66522" lon="6.35742">
        <ele>357</ele>
        <time>2005-05-11T06:26:36Z</time>
      </trkpt>
      <trkpt lat="45.66581" lon="6.35684">
        <ele>359</ele>
        <time>2005-05-11T06:26:54Z</time>
      </trkpt>
      <trkpt lat="45.66617" lon="6.35643">
        <ele>361</ele>
        <time>2005-05-11T06:27:06Z</time>
      </trkpt>
      <trkpt lat="45.66628" lon="6.35635">
        <ele>361</ele>
        <time>2005-05-11T06:27:10Z</time>
      </trkpt>
      <trkpt lat="45.6665" lon="6.3561">
        <ele>362</ele>
        <time>2005-05-11T06:27:19Z</time>
      </trkpt>
      <trkpt lat="45.66693" lon="6.3557">
        <ele>364</ele>
        <time>2005-05-11T06:27:34Z</time>
      </trkpt>
      <trkpt lat="45.66754" lon="6.35509">
        <ele>366</ele>
        <time>2005-05-11T06:27:55Z</time>
      </trkpt>
      <trkpt lat="45.66795" lon="6.35464">
        <ele>367</ele>
        <time>2005-05-11T06:28:10Z</time>
      </trkpt>
      <trkpt lat="45.66813" lon="6.35448">
        <ele>368</ele>
        <time>2005-05-11T06:28:16Z</time>
      </trkpt>
      <trkpt lat="45.66819" lon="6.35439">
        <ele>368</ele>
        <time>2005-05-11T06:28:19Z</time>
      </trkpt>
      <trkpt lat="45.66817" lon="6.35426">
        <ele>369</ele>
        <time>2005-05-11T06:28:22Z</time>
      </trkpt>
      <trkpt lat="45.66824" lon="6.35414">
        <ele>370</ele>
        <time>2005-05-11T06:28:26Z</time>
      </trkpt>
      <trkpt lat="45.66876" lon="6.35371">
        <ele>371</ele>
        <time>2005-05-11T06:28:44Z</time>
      </trkpt>
      <trkpt lat="45.66884" lon="6.35359">
        <ele>371</ele>
        <time>2005-05-11T06:28:47Z</time>
      </trkpt>
      <trkpt lat="45.66896" lon="6.35332">
        <ele>371</ele>
        <time>2005-05-11T06:28:53Z</time>
      </trkpt>
      <trkpt lat="45.66917" lon="6.35276">
        <ele>371</ele>
        <time>2005-05-11T06:29:05Z</time>
      </trkpt>
      <trkpt lat="45.66927" lon="6.35271">
        <ele>372</ele>
        <time>2005-05-11T06:29:08Z</time>
      </trkpt>
      <trkpt lat="45.66961" lon="6.3527">
        <ele>373</ele>
        <time>2005-05-11T06:29:17Z</time>
      </trkpt>
      <trkpt lat="45.67043" lon="6.35237">
        <ele>375</ele>
        <time>2005-05-11T06:29:41Z</time>
      </trkpt>
      <trkpt lat="45.67092" lon="6.35227">
        <ele>377</ele>
        <time>2005-05-11T06:29:56Z</time>
      </trkpt>
      <trkpt lat="45.67102" lon="6.35226">
        <ele>378</ele>
        <time>2005-05-11T06:29:59Z</time>
      </trkpt>
      <trkpt lat="45.67112" lon="6.35231">
        <ele>378</ele>
        <time>2005-05-11T06:30:02Z</time>
      </trkpt>
      <trkpt lat="45.67139" lon="6.35255">
        <ele>379</ele>
        <time>2005-05-11T06:30:11Z</time>
      </trkpt>
      <trkpt lat="45.67159" lon="6.35265">
        <ele>379</ele>
        <time>2005-05-11T06:30:17Z</time>
      </trkpt>
      <trkpt lat="45.67179" lon="6.35271">
        <ele>380</ele>
        <time>2005-05-11T06:30:23Z</time>
      </trkpt>
      <trkpt lat="45.6726" lon="6.35273">
        <ele>383</ele>
        <time>2005-05-11T06:30:48Z</time>
      </trkpt>
      <trkpt lat="45.67311" lon="6.3527">
        <ele>385</ele>
        <time>2005-05-11T06:31:03Z</time>
      </trkpt>
      <trkpt lat="45.67339" lon="6.35271">
        <ele>386</ele>
        <time>2005-05-11T06:31:12Z</time>
      </trkpt>
      <trkpt lat="45.67378" lon="6.35281">
        <ele>388</ele>
        <time>2005-05-11T06:31:25Z</time>
      </trkpt>
      <trkpt lat="45.67397" lon="6.35288">
        <ele>388</ele>
        <time>2005-05-11T06:31:31Z</time>
      </trkpt>
      <trkpt lat="45.6745" lon="6.35313">
        <ele>390</ele>
        <time>2005-05-11T06:31:49Z</time>
      </trkpt>
      <trkpt lat="45.6749" lon="6.35338">
        <ele>393</ele>
        <time>2005-05-11T06:32:04Z</time>
      </trkpt>
      <trkpt lat="45.67588" lon="6.35421">
        <ele>398</ele>
        <time>2005-05-11T06:33:17Z</time>
      </trkpt>
      <trkpt lat="45.6765" lon="6.35488">
        <ele>401</ele>
        <time>2005-05-11T06:33:41Z</time>
      </trkpt>
      <trkpt lat="45.67692" lon="6.3554">
        <ele>402</ele>
        <time>2005-05-11T06:34:02Z</time>
      </trkpt>
      <trkpt lat="45.677" lon="6.35547">
        <ele>403</ele>
        <time>2005-05-11T06:34:08Z</time>
      </trkpt>
      <trkpt lat="45.67711" lon="6.35543">
        <ele>406</ele>
        <time>2005-05-11T06:34:13Z</time>
      </trkpt>
      <trkpt lat="45.67721" lon="6.35542">
        <ele>407</ele>
        <time>2005-05-11T06:34:18Z</time>
      </trkpt>
      <trkpt lat="45.67731" lon="6.35537">
        <ele>408</ele>
        <time>2005-05-11T06:34:24Z</time>
      </trkpt>
      <trkpt lat="45.67759" lon="6.35515">
        <ele>410</ele>
        <time>2005-05-11T06:34:37Z</time>
      </trkpt>
      <trkpt lat="45.67789" lon="6.35504">
        <ele>413</ele>
        <time>2005-05-11T06:34:51Z</time>
      </trkpt>
      <trkpt lat="45.67799" lon="6.35498">
        <ele>414</ele>
        <time>2005-05-11T06:34:57Z</time>
      </trkpt>
      <trkpt lat="45.67821" lon="6.35468">
        <ele>417</ele>
        <time>2005-05-11T06:35:30Z</time>
      </trkpt>
      <trkpt lat="45.67827" lon="6.35454">
        <ele>420</ele>
        <time>2005-05-11T06:35:41Z</time>
      </trkpt>
      <trkpt lat="45.67826" lon="6.35436">
        <ele>423</ele>
        <time>2005-05-11T06:35:56Z</time>
      </trkpt>
      <trkpt lat="45.67818" lon="6.35424">
        <ele>425</ele>
        <time>2005-05-11T06:36:08Z</time>
      </trkpt>
      <trkpt lat="45.67809" lon="6.35422">
        <ele>426</ele>
        <time>2005-05-11T06:38:28Z</time>
      </trkpt>
      <trkpt lat="45.67812" lon="6.35408">
        <ele>427</ele>
        <time>2005-05-11T06:38:35Z</time>
      </trkpt>
      <trkpt lat="45.6781" lon="6.35393">
        <ele>429</ele>
        <time>2005-05-11T06:38:48Z</time>
      </trkpt>
      <trkpt lat="45.67832" lon="6.35412">
        <ele>426</ele>
        <time>2005-05-11T06:39:01Z</time>
      </trkpt>
      <trkpt lat="45.6784" lon="6.35406">
        <ele>426</ele>
        <time>2005-05-11T06:39:05Z</time>
      </trkpt>
      <trkpt lat="45.67842" lon="6.35392">
        <ele>428</ele>
        <time>2005-05-11T06:39:11Z</time>
      </trkpt>
      <trkpt lat="45.67841" lon="6.35378">
        <ele>430</ele>
        <time>2005-05-11T06:39:18Z</time>
      </trkpt>
      <trkpt lat="45.67835" lon="6.35352">
        <ele>433</ele>
        <time>2005-05-11T06:39:33Z</time>
      </trkpt>
      <trkpt lat="45.67827" lon="6.35329">
        <ele>436</ele>
        <time>2005-05-11T06:39:48Z</time>
      </trkpt>
      <trkpt lat="45.67823" lon="6.35284">
        <ele>441</ele>
        <time>2005-05-11T06:40:21Z</time>
      </trkpt>
      <trkpt lat="45.67826" lon="6.35242">
        <ele>445</ele>
        <time>2005-05-11T06:40:46Z</time>
      </trkpt>
      <trkpt lat="45.67826" lon="6.35214">
        <ele>446</ele>
        <time>2005-05-11T06:41:01Z</time>
      </trkpt>
      <trkpt lat="45.67831" lon="6.35185">
        <ele>450</ele>
        <time>2005-05-11T06:41:21Z</time>
      </trkpt>
      <trkpt lat="45.67832" lon="6.35168">
        <ele>451</ele>
        <time>2005-05-11T06:41:32Z</time>
      </trkpt>
      <trkpt lat="45.67826" lon="6.35134">
        <ele>453</ele>
        <time>2005-05-11T06:41:49Z</time>
      </trkpt>
      <trkpt lat="45.6781" lon="6.35094">
        <ele>454</ele>
        <time>2005-05-11T06:42:08Z</time>
      </trkpt>
      <trkpt lat="45.67801" lon="6.35067">
        <ele>456</ele>
        <time>2005-05-11T06:42:19Z</time>
      </trkpt>
      <trkpt lat="45.67786" lon="6.35014">
        <ele>457</ele>
        <time>2005-05-11T06:42:39Z</time>
      </trkpt>
      <trkpt lat="45.67764" lon="6.34923">
        <ele>463</ele>
        <time>2005-05-11T06:43:14Z</time>
      </trkpt>
      <trkpt lat="45.67756" lon="6.34884">
        <ele>464</ele>
        <time>2005-05-11T06:43:30Z</time>
      </trkpt>
      <trkpt lat="45.67751" lon="6.34841">
        <ele>467</ele>
        <time>2005-05-11T06:43:48Z</time>
      </trkpt>
      <trkpt lat="45.67754" lon="6.34811">
        <ele>470</ele>
        <time>2005-05-11T06:44:05Z</time>
      </trkpt>
      <trkpt lat="45.6776" lon="6.34759">
        <ele>473</ele>
        <time>2005-05-11T06:44:29Z</time>
      </trkpt>
      <trkpt lat="45.67756" lon="6.34742">
        <ele>475</ele>
        <time>2005-05-11T06:44:38Z</time>
      </trkpt>
      <trkpt lat="45.6774" lon="6.34702">
        <ele>479</ele>
        <time>2005-05-11T06:45:01Z</time>
      </trkpt>
      <trkpt lat="45.67733" lon="6.34674">
        <ele>482</ele>
        <time>2005-05-11T06:45:19Z</time>
      </trkpt>
      <trkpt lat="45.67725" lon="6.34619">
        <ele>487</ele>
        <time>2005-05-11T06:45:57Z</time>
      </trkpt>
      <trkpt lat="45.67717" lon="6.34595">
        <ele>490</ele>
        <time>2005-05-11T06:46:15Z</time>
      </trkpt>
      <trkpt lat="45.67711" lon="6.34585">
        <ele>492</ele>
        <time>2005-05-11T06:46:24Z</time>
      </trkpt>
      <trkpt lat="45.67704" lon="6.34576">
        <ele>493</ele>
        <time>2005-05-11T06:46:34Z</time>
      </trkpt>
      <trkpt lat="45.67698" lon="6.34565">
        <ele>495</ele>
        <time>2005-05-11T06:46:44Z</time>
      </trkpt>
      <trkpt lat="45.6768" lon="6.34517">
        <ele>500</ele>
        <time>2005-05-11T06:47:22Z</time>
      </trkpt>
      <trkpt lat="45.6767" lon="6.34476">
        <ele>503</ele>
        <time>2005-05-11T06:47:49Z</time>
      </trkpt>
      <trkpt lat="45.67674" lon="6.34436">
        <ele>506</ele>
        <time>2005-05-11T06:48:13Z</time>
      </trkpt>
      <trkpt lat="45.67686" lon="6.344">
        <ele>511</ele>
        <time>2005-05-11T06:48:38Z</time>
      </trkpt>
      <trkpt lat="45.67685" lon="6.34386">
        <ele>513</ele>
        <time>2005-05-11T06:48:46Z</time>
      </trkpt>
      <trkpt lat="45.67681" lon="6.34373">
        <ele>515</ele>
        <time>2005-05-11T06:48:55Z</time>
      </trkpt>
      <trkpt lat="45.67681" lon="6.34365">
        <ele>516</ele>
        <time>2005-05-11T06:49:06Z</time>
      </trkpt>
      <trkpt lat="45.67676" lon="6.34351">
        <ele>517</ele>
        <time>2005-05-11T06:49:15Z</time>
      </trkpt>
      <trkpt lat="45.67663" lon="6.34325">
        <ele>517</ele>
        <time>2005-05-11T06:49:30Z</time>
      </trkpt>
      <trkpt lat="45.67635" lon="6.34259">
        <ele>524</ele>
        <time>2005-05-11T06:50:08Z</time>
      </trkpt>
      <trkpt lat="45.67618" lon="6.34208">
        <ele>527</ele>
        <time>2005-05-11T06:50:38Z</time>
      </trkpt>
      <trkpt lat="45.67613" lon="6.34196">
        <ele>528</ele>
        <time>2005-05-11T06:50:45Z</time>
      </trkpt>
      <trkpt lat="45.67606" lon="6.34173">
        <ele>530</ele>
        <time>2005-05-11T06:50:59Z</time>
      </trkpt>
      <trkpt lat="45.67599" lon="6.34162">
        <ele>531</ele>
        <time>2005-05-11T06:51:06Z</time>
      </trkpt>
      <trkpt lat="45.67592" lon="6.34139">
        <ele>533</ele>
        <time>2005-05-11T06:51:20Z</time>
      </trkpt>
      <trkpt lat="45.67584" lon="6.34099">
        <ele>535</ele>
        <time>2005-05-11T06:51:38Z</time>
      </trkpt>
      <trkpt lat="45.67577" lon="6.34073">
        <ele>535</ele>
        <time>2005-05-11T06:51:49Z</time>
      </trkpt>
      <trkpt lat="45.67568" lon="6.34031">
        <ele>536</ele>
        <time>2005-05-11T06:52:03Z</time>
      </trkpt>
      <trkpt lat="45.67561" lon="6.34007">
        <ele>536</ele>
        <time>2005-05-11T06:52:11Z</time>
      </trkpt>
      <trkpt lat="45.67545" lon="6.3397">
        <ele>538</ele>
        <time>2005-05-11T06:52:25Z</time>
      </trkpt>
      <trkpt lat="45.67527" lon="6.33906">
        <ele>539</ele>
        <time>2005-05-11T06:52:47Z</time>
      </trkpt>
      <trkpt lat="45.67518" lon="6.33836">
        <ele>542</ele>
        <time>2005-05-11T06:53:12Z</time>
      </trkpt>
      <trkpt lat="45.67514" lon="6.33824">
        <ele>543</ele>
        <time>2005-05-11T06:53:17Z</time>
      </trkpt>
      <trkpt lat="45.67507" lon="6.33814">
        <ele>543</ele>
        <time>2005-05-11T06:53:22Z</time>
      </trkpt>
      <trkpt lat="45.67491" lon="6.33802">
        <ele>545</ele>
        <time>2005-05-11T06:53:32Z</time>
      </trkpt>
      <trkpt lat="45.67478" lon="6.33781">
        <ele>548</ele>
        <time>2005-05-11T06:54:18Z</time>
      </trkpt>
      <trkpt lat="45.67465" lon="6.33745">
        <ele>550</ele>
        <time>2005-05-11T06:54:38Z</time>
      </trkpt>
      <trkpt lat="45.67459" lon="6.3372">
        <ele>552</ele>
        <time>2005-05-11T06:54:50Z</time>
      </trkpt>
      <trkpt lat="45.67457" lon="6.33694">
        <ele>553</ele>
        <time>2005-05-11T06:56:07Z</time>
      </trkpt>
      <trkpt lat="45.67479" lon="6.33665">
        <ele>554</ele>
        <time>2005-05-11T06:56:22Z</time>
      </trkpt>
      <trkpt lat="45.67487" lon="6.33658">
        <ele>555</ele>
        <time>2005-05-11T06:56:27Z</time>
      </trkpt>
      <trkpt lat="45.67499" lon="6.33654">
        <ele>557</ele>
        <time>2005-05-11T06:56:34Z</time>
      </trkpt>
      <trkpt lat="45.67471" lon="6.33571">
        <ele>557</ele>
        <time>2005-05-11T07:04:38Z</time>
      </trkpt>
      <trkpt lat="45.67468" lon="6.33557">
        <ele>557</ele>
        <time>2005-05-11T07:04:42Z</time>
      </trkpt>
      <trkpt lat="45.67473" lon="6.33543">
        <ele>557</ele>
        <time>2005-05-11T07:04:46Z</time>
      </trkpt>
      <trkpt lat="45.67578" lon="6.33474">
        <ele>569</ele>
        <time>2005-05-11T07:05:48Z</time>
      </trkpt>
      <trkpt lat="45.67614" lon="6.33446">
        <ele>573</ele>
        <time>2005-05-11T07:06:12Z</time>
      </trkpt>
      <trkpt lat="45.67646" lon="6.33416">
        <ele>577</ele>
        <time>2005-05-11T07:06:36Z</time>
      </trkpt>
      <trkpt lat="45.67653" lon="6.33405">
        <ele>577</ele>
        <time>2005-05-11T07:06:42Z</time>
      </trkpt>
      <trkpt lat="45.67661" lon="6.33381">
        <ele>578</ele>
        <time>2005-05-11T07:06:54Z</time>
      </trkpt>
      <trkpt lat="45.6767" lon="6.33343">
        <ele>583</ele>
        <time>2005-05-11T07:07:13Z</time>
      </trkpt>
      <trkpt lat="45.67669" lon="6.33315">
        <ele>584</ele>
        <time>2005-05-11T07:07:25Z</time>
      </trkpt>
      <trkpt lat="45.67663" lon="6.33272">
        <ele>587</ele>
        <time>2005-05-11T07:07:43Z</time>
      </trkpt>
      <trkpt lat="45.67665" lon="6.33242">
        <ele>589</ele>
        <time>2005-05-11T07:07:55Z</time>
      </trkpt>
      <trkpt lat="45.67668" lon="6.33214">
        <ele>590</ele>
        <time>2005-05-11T07:08:07Z</time>
      </trkpt>
      <trkpt lat="45.67669" lon="6.33184">
        <ele>591</ele>
        <time>2005-05-11T07:08:19Z</time>
      </trkpt>
      <trkpt lat="45.67667" lon="6.33171">
        <ele>593</ele>
        <time>2005-05-11T07:08:25Z</time>
      </trkpt>
      <trkpt lat="45.67631" lon="6.33081">
        <ele>599</ele>
        <time>2005-05-11T07:09:09Z</time>
      </trkpt>
      <trkpt lat="45.67625" lon="6.3307">
        <ele>600</ele>
        <time>2005-05-11T07:09:15Z</time>
      </trkpt>
      <trkpt lat="45.67617" lon="6.3306">
        <ele>600</ele>
        <time>2005-05-11T07:09:21Z</time>
      </trkpt>
      <trkpt lat="45.67562" lon="6.33022">
        <ele>602</ele>
        <time>2005-05-11T07:09:48Z</time>
      </trkpt>
      <trkpt lat="45.67537" lon="6.33">
        <ele>605</ele>
        <time>2005-05-11T07:09:58Z</time>
      </trkpt>
      <trkpt lat="45.67523" lon="6.3298">
        <ele>607</ele>
        <time>2005-05-11T07:10:06Z</time>
      </trkpt>
      <trkpt lat="45.67504" lon="6.3295">
        <ele>609</ele>
        <time>2005-05-11T07:10:18Z</time>
      </trkpt>
      <trkpt lat="45.67477" lon="6.32891">
        <ele>613</ele>
        <time>2005-05-11T07:10:47Z</time>
      </trkpt>
      <trkpt lat="45.6747" lon="6.3288">
        <ele>614</ele>
        <time>2005-05-11T07:10:53Z</time>
      </trkpt>
      <trkpt lat="45.67454" lon="6.32831">
        <ele>615</ele>
        <time>2005-05-11T07:11:13Z</time>
      </trkpt>
      <trkpt lat="45.67449" lon="6.32821">
        <ele>617</ele>
        <time>2005-05-11T07:11:18Z</time>
      </trkpt>
      <trkpt lat="45.67433" lon="6.32803">
        <ele>618</ele>
        <time>2005-05-11T07:11:29Z</time>
      </trkpt>
      <trkpt lat="45.67408" lon="6.32781">
        <ele>620</ele>
        <time>2005-05-11T07:11:46Z</time>
      </trkpt>
      <trkpt lat="45.67401" lon="6.32771">
        <ele>619</ele>
        <time>2005-05-11T07:11:50Z</time>
      </trkpt>
      <trkpt lat="45.67388" lon="6.32748">
        <ele>619</ele>
        <time>2005-05-11T07:11:58Z</time>
      </trkpt>
      <trkpt lat="45.67373" lon="6.32707">
        <ele>616</ele>
        <time>2005-05-11T07:12:08Z</time>
      </trkpt>
      <trkpt lat="45.67372" lon="6.32689">
        <ele>615</ele>
        <time>2005-05-11T07:12:11Z</time>
      </trkpt>
      <trkpt lat="45.67369" lon="6.32681">
        <ele>616</ele>
        <time>2005-05-11T07:12:42Z</time>
      </trkpt>
      <trkpt lat="45.67371" lon="6.32666">
        <ele>613</ele>
        <time>2005-05-11T07:12:47Z</time>
      </trkpt>
      <trkpt lat="45.67376" lon="6.32652">
        <ele>612</ele>
        <time>2005-05-11T07:12:52Z</time>
      </trkpt>
      <trkpt lat="45.67377" lon="6.32635">
        <ele>612</ele>
        <time>2005-05-11T07:12:56Z</time>
      </trkpt>
      <trkpt lat="45.67369" lon="6.3256">
        <ele>622</ele>
        <time>2005-05-11T07:13:29Z</time>
      </trkpt>
      <trkpt lat="45.67369" lon="6.32546">
        <ele>623</ele>
        <time>2005-05-11T07:13:35Z</time>
      </trkpt>
      <trkpt lat="45.67367" lon="6.32532">
        <ele>624</ele>
        <time>2005-05-11T07:13:41Z</time>
      </trkpt>
      <trkpt lat="45.67362" lon="6.32517">
        <ele>625</ele>
        <time>2005-05-11T07:13:48Z</time>
      </trkpt>
      <trkpt lat="45.67338" lon="6.32465">
        <ele>636</ele>
        <time>2005-05-11T07:14:39Z</time>
      </trkpt>
      <trkpt lat="45.67284" lon="6.32402">
        <ele>644</ele>
        <time>2005-05-11T07:15:40Z</time>
      </trkpt>
      <trkpt lat="45.67257" lon="6.3238">
        <ele>648</ele>
        <time>2005-05-11T07:16:04Z</time>
      </trkpt>
      <trkpt lat="45.6725" lon="6.32368">
        <ele>648</ele>
        <time>2005-05-11T07:16:16Z</time>
      </trkpt>
      <trkpt lat="45.67213" lon="6.32336">
        <ele>650</ele>
        <time>2005-05-11T07:16:46Z</time>
      </trkpt>
      <trkpt lat="45.67183" lon="6.32294">
        <ele>639</ele>
        <time>2005-05-11T07:17:19Z</time>
      </trkpt>
      <trkpt lat="45.6714" lon="6.32255">
        <ele>638</ele>
        <time>2005-05-11T07:17:25Z</time>
      </trkpt>
      <trkpt lat="45.67084" lon="6.32199">
        <ele>631</ele>
        <time>2005-05-11T07:17:33Z</time>
      </trkpt>
      <trkpt lat="45.67062" lon="6.32193">
        <ele>623</ele>
        <time>2005-05-11T07:17:37Z</time>
      </trkpt>
      <trkpt lat="45.67026" lon="6.3217">
        <ele>618</ele>
        <time>2005-05-11T07:17:43Z</time>
      </trkpt>
      <trkpt lat="45.67013" lon="6.32159">
        <ele>620</ele>
        <time>2005-05-11T07:17:45Z</time>
      </trkpt>
      <trkpt lat="45.66959" lon="6.32083">
        <ele>616</ele>
        <time>2005-05-11T07:17:57Z</time>
      </trkpt>
      <trkpt lat="45.6695" lon="6.32067">
        <ele>615</ele>
        <time>2005-05-11T07:17:59Z</time>
      </trkpt>
      <trkpt lat="45.66933" lon="6.32046">
        <ele>615</ele>
        <time>2005-05-11T07:18:03Z</time>
      </trkpt>
      <trkpt lat="45.66918" lon="6.3202">
        <ele>619</ele>
        <time>2005-05-11T07:18:08Z</time>
      </trkpt>
      <trkpt lat="45.66913" lon="6.31993">
        <ele>620</ele>
        <time>2005-05-11T07:18:14Z</time>
      </trkpt>
      <trkpt lat="45.66911" lon="6.31968">
        <ele>621</ele>
        <time>2005-05-11T07:18:20Z</time>
      </trkpt>
      <trkpt lat="45.66905" lon="6.31947">
        <ele>621</ele>
        <time>2005-05-11T07:18:26Z</time>
      </trkpt>
      <trkpt lat="45.66888" lon="6.31905">
        <ele>624</ele>
        <time>2005-05-11T07:18:39Z</time>
      </trkpt>
      <trkpt lat="45.66877" lon="6.31863">
        <ele>625</ele>
        <time>2005-05-11T07:18:54Z</time>
      </trkpt>
      <trkpt lat="45.66867" lon="6.31838">
        <ele>627</ele>
        <time>2005-05-11T07:19:01Z</time>
      </trkpt>
      <trkpt lat="45.66842" lon="6.31783">
        <ele>627</ele>
        <time>2005-05-11T07:19:10Z</time>
      </trkpt>
      <trkpt lat="45.66835" lon="6.3175">
        <ele>627</ele>
        <time>2005-05-11T07:19:18Z</time>
      </trkpt>
      <trkpt lat="45.66816" lon="6.31742">
        <ele>630</ele>
        <time>2005-05-11T07:19:27Z</time>
      </trkpt>
      <trkpt lat="45.66805" lon="6.31734">
        <ele>632</ele>
        <time>2005-05-11T07:19:34Z</time>
      </trkpt>
      <trkpt lat="45.66788" lon="6.31718">
        <ele>635</ele>
        <time>2005-05-11T07:19:45Z</time>
      </trkpt>
      <trkpt lat="45.66766" lon="6.31704">
        <ele>636</ele>
        <time>2005-05-11T07:19:59Z</time>
      </trkpt>
      <trkpt lat="45.66712" lon="6.31658">
        <ele>638</ele>
        <time>2005-05-11T07:21:35Z</time>
      </trkpt>
      <trkpt lat="45.66692" lon="6.31629">
        <ele>643</ele>
        <time>2005-05-11T07:21:53Z</time>
      </trkpt>
      <trkpt lat="45.66687" lon="6.31616">
        <ele>645</ele>
        <time>2005-05-11T07:22:00Z</time>
      </trkpt>
      <trkpt lat="45.66673" lon="6.31594">
        <ele>647</ele>
        <time>2005-05-11T07:22:13Z</time>
      </trkpt>
      <trkpt lat="45.66668" lon="6.3158">
        <ele>650</ele>
        <time>2005-05-11T07:22:23Z</time>
      </trkpt>
      <trkpt lat="45.66664" lon="6.31563">
        <ele>650</ele>
        <time>2005-05-11T07:22:37Z</time>
      </trkpt>
      <trkpt lat="45.6665" lon="6.31526">
        <ele>646</ele>
        <time>2005-05-11T07:22:59Z</time>
      </trkpt>
      <trkpt lat="45.66633" lon="6.31411">
        <ele>650</ele>
        <time>2005-05-11T07:23:12Z</time>
      </trkpt>
      <trkpt lat="45.66631" lon="6.31384">
        <ele>652</ele>
        <time>2005-05-11T07:23:26Z</time>
      </trkpt>
      <trkpt lat="45.66634" lon="6.31371">
        <ele>653</ele>
        <time>2005-05-11T07:23:34Z</time>
      </trkpt>
      <trkpt lat="45.66629" lon="6.31339">
        <ele>656</ele>
        <time>2005-05-11T07:23:57Z</time>
      </trkpt>
      <trkpt lat="45.66578" lon="6.31299">
        <ele>656</ele>
        <time>2005-05-11T07:24:23Z</time>
      </trkpt>
      <trkpt lat="45.66553" lon="6.31269">
        <ele>656</ele>
        <time>2005-05-11T07:24:32Z</time>
      </trkpt>
      <trkpt lat="45.66503" lon="6.31201">
        <ele>656</ele>
        <time>2005-05-11T07:24:54Z</time>
      </trkpt>
      <trkpt lat="45.66482" lon="6.31166">
        <ele>655</ele>
        <time>2005-05-11T07:25:03Z</time>
      </trkpt>
      <trkpt lat="45.66458" lon="6.3106">
        <ele>657</ele>
        <time>2005-05-11T07:25:29Z</time>
      </trkpt>
      <trkpt lat="45.66454" lon="6.31045">
        <ele>659</ele>
        <time>2005-05-11T07:25:34Z</time>
      </trkpt>
      <trkpt lat="45.66445" lon="6.31032">
        <ele>658</ele>
        <time>2005-05-11T07:26:37Z</time>
      </trkpt>
      <trkpt lat="45.66452" lon="6.31004">
        <ele>663</ele>
        <time>2005-05-11T07:26:52Z</time>
      </trkpt>
      <trkpt lat="45.6647" lon="6.30836">
        <ele>682</ele>
        <time>2005-05-11T07:29:02Z</time>
      </trkpt>
      <trkpt lat="45.66474" lon="6.30825">
        <ele>684</ele>
        <time>2005-05-11T07:29:10Z</time>
      </trkpt>
      <trkpt lat="45.66459" lon="6.30809">
        <ele>686</ele>
        <time>2005-05-11T07:29:58Z</time>
      </trkpt>
      <trkpt lat="45.66451" lon="6.30799">
        <ele>687</ele>
        <time>2005-05-11T07:30:04Z</time>
      </trkpt>
      <trkpt lat="45.66446" lon="6.30787">
        <ele>687</ele>
        <time>2005-05-11T07:30:11Z</time>
      </trkpt>
      <trkpt lat="45.66436" lon="6.30744">
        <ele>690</ele>
        <time>2005-05-11T07:30:30Z</time>
      </trkpt>
      <trkpt lat="45.66433" lon="6.30716">
        <ele>692</ele>
        <time>2005-05-11T07:30:42Z</time>
      </trkpt>
      <trkpt lat="45.66421" lon="6.30677">
        <ele>693</ele>
        <time>2005-05-11T07:30:59Z</time>
      </trkpt>
      <trkpt lat="45.6644" lon="6.30716">
        <ele>693</ele>
        <time>2005-05-11T07:31:49Z</time>
      </trkpt>
      <trkpt lat="45.66447" lon="6.30726">
        <ele>695</ele>
        <time>2005-05-11T07:31:57Z</time>
      </trkpt>
      <trkpt lat="45.66467" lon="6.30735">
        <ele>698</ele>
        <time>2005-05-11T07:32:14Z</time>
      </trkpt>
      <trkpt lat="45.66475" lon="6.30728">
        <ele>700</ele>
        <time>2005-05-11T07:32:21Z</time>
      </trkpt>
      <trkpt lat="45.66505" lon="6.30689">
        <ele>706</ele>
        <time>2005-05-11T07:32:51Z</time>
      </trkpt>
      <trkpt lat="45.6652" lon="6.30666">
        <ele>709</ele>
        <time>2005-05-11T07:33:13Z</time>
      </trkpt>
      <trkpt lat="45.66524" lon="6.30651">
        <ele>712</ele>
        <time>2005-05-11T07:33:26Z</time>
      </trkpt>
      <trkpt lat="45.66531" lon="6.30637">
        <ele>713</ele>
        <time>2005-05-11T07:33:35Z</time>
      </trkpt>
      <trkpt lat="45.66544" lon="6.30599">
        <ele>717</ele>
        <time>2005-05-11T07:34:04Z</time>
      </trkpt>
      <trkpt lat="45.66545" lon="6.30584">
        <ele>718</ele>
        <time>2005-05-11T07:34:18Z</time>
      </trkpt>
      <trkpt lat="45.66571" lon="6.30535">
        <ele>724</ele>
        <time>2005-05-11T07:34:57Z</time>
      </trkpt>
      <trkpt lat="45.66573" lon="6.30521">
        <ele>725</ele>
        <time>2005-05-11T07:35:06Z</time>
      </trkpt>
      <trkpt lat="45.66574" lon="6.30491">
        <ele>728</ele>
        <time>2005-05-11T07:35:27Z</time>
      </trkpt>
      <trkpt lat="45.66573" lon="6.30475">
        <ele>728</ele>
        <time>2005-05-11T07:35:38Z</time>
      </trkpt>
      <trkpt lat="45.66569" lon="6.30458">
        <ele>730</ele>
        <time>2005-05-11T07:35:48Z</time>
      </trkpt>
      <trkpt lat="45.66557" lon="6.3043">
        <ele>732</ele>
        <time>2005-05-11T07:36:05Z</time>
      </trkpt>
      <trkpt lat="45.66536" lon="6.30404">
        <ele>735</ele>
        <time>2005-05-11T07:36:27Z</time>
      </trkpt>
      <trkpt lat="45.66504" lon="6.30376">
        <ele>739</ele>
        <time>2005-05-11T07:36:59Z</time>
      </trkpt>
      <trkpt lat="45.66481" lon="6.30362">
        <ele>741</ele>
        <time>2005-05-11T07:37:14Z</time>
      </trkpt>
      <trkpt lat="45.66472" lon="6.30348">
        <ele>744</ele>
        <time>2005-05-11T07:37:26Z</time>
      </trkpt>
      <trkpt lat="45.6647" lon="6.30332">
        <ele>746</ele>
        <time>2005-05-11T07:37:37Z</time>
      </trkpt>
      <trkpt lat="45.66474" lon="6.30287">
        <ele>750</ele>
        <time>2005-05-11T07:38:08Z</time>
      </trkpt>
      <trkpt lat="45.66481" lon="6.30274">
        <ele>751</ele>
        <time>2005-05-11T07:38:19Z</time>
      </trkpt>
      <trkpt lat="45.6649" lon="6.30267">
        <ele>754</ele>
        <time>2005-05-11T07:38:29Z</time>
      </trkpt>
      <trkpt lat="45.665" lon="6.30265">
        <ele>755</ele>
        <time>2005-05-11T07:38:39Z</time>
      </trkpt>
      <trkpt lat="45.6653" lon="6.30278">
        <ele>761</ele>
        <time>2005-05-11T07:39:10Z</time>
      </trkpt>
      <trkpt lat="45.66551" lon="6.30268">
        <ele>764</ele>
        <time>2005-05-11T07:39:48Z</time>
      </trkpt>
      <trkpt lat="45.6656" lon="6.30259">
        <ele>766</ele>
        <time>2005-05-11T07:40:01Z</time>
      </trkpt>
      <trkpt lat="45.66572" lon="6.3024">
        <ele>769</ele>
        <time>2005-05-11T07:40:23Z</time>
      </trkpt>
      <trkpt lat="45.66589" lon="6.30224">
        <ele>772</ele>
        <time>2005-05-11T07:40:48Z</time>
      </trkpt>
      <trkpt lat="45.66607" lon="6.30209">
        <ele>776</ele>
        <time>2005-05-11T07:41:12Z</time>
      </trkpt>
      <trkpt lat="45.66628" lon="6.30201">
        <ele>779</ele>
        <time>2005-05-11T07:41:34Z</time>
      </trkpt>
      <trkpt lat="45.66653" lon="6.30201">
        <ele>784</ele>
        <time>2005-05-11T07:42:07Z</time>
      </trkpt>
      <trkpt lat="45.66654" lon="6.30213">
        <ele>786</ele>
        <time>2005-05-11T07:42:47Z</time>
      </trkpt>
      <trkpt lat="45.6664" lon="6.30226">
        <ele>788</ele>
        <time>2005-05-11T07:43:01Z</time>
      </trkpt>
      <trkpt lat="45.66632" lon="6.30236">
        <ele>788</ele>
        <time>2005-05-11T07:43:08Z</time>
      </trkpt>
      <trkpt lat="45.66631" lon="6.30248">
        <ele>788</ele>
        <time>2005-05-11T07:43:14Z</time>
      </trkpt>
      <trkpt lat="45.66635" lon="6.3026">
        <ele>788</ele>
        <time>2005-05-11T07:43:20Z</time>
      </trkpt>
      <trkpt lat="45.66645" lon="6.30259">
        <ele>788</ele>
        <time>2005-05-11T07:43:26Z</time>
      </trkpt>
      <trkpt lat="45.66659" lon="6.30243">
        <ele>790</ele>
        <time>2005-05-11T07:43:36Z</time>
      </trkpt>
      <trkpt lat="45.66677" lon="6.30229">
        <ele>791</ele>
        <time>2005-05-11T07:43:46Z</time>
      </trkpt>
      <trkpt lat="45.66686" lon="6.30224">
        <ele>792</ele>
        <time>2005-05-11T07:43:52Z</time>
      </trkpt>
      <trkpt lat="45.66725" lon="6.30228">
        <ele>801</ele>
        <time>2005-05-11T07:44:27Z</time>
      </trkpt>
      <trkpt lat="45.66744" lon="6.30223">
        <ele>804</ele>
        <time>2005-05-11T07:45:04Z</time>
      </trkpt>
      <trkpt lat="45.66773" lon="6.30253">
        <ele>812</ele>
        <time>2005-05-11T07:47:05Z</time>
      </trkpt>
      <trkpt lat="45.66789" lon="6.30284">
        <ele>819</ele>
        <time>2005-05-11T07:48:06Z</time>
      </trkpt>
      <trkpt lat="45.66793" lon="6.303">
        <ele>822</ele>
        <time>2005-05-11T07:48:22Z</time>
      </trkpt>
      <trkpt lat="45.6679" lon="6.30319">
        <ele>826</ele>
        <time>2005-05-11T07:48:56Z</time>
      </trkpt>
      <trkpt lat="45.66781" lon="6.3035">
        <ele>831</ele>
        <time>2005-05-11T07:49:32Z</time>
      </trkpt>
      <trkpt lat="45.6677" lon="6.30378">
        <ele>835</ele>
        <time>2005-05-11T07:50:03Z</time>
      </trkpt>
      <trkpt lat="45.6677" lon="6.30395">
        <ele>838</ele>
        <time>2005-05-11T07:50:18Z</time>
      </trkpt>
      <trkpt lat="45.66774" lon="6.30425">
        <ele>843</ele>
        <time>2005-05-11T07:50:49Z</time>
      </trkpt>
      <trkpt lat="45.66797" lon="6.30465">
        <ele>850</ele>
        <time>2005-05-11T07:51:49Z</time>
      </trkpt>
      <trkpt lat="45.66806" lon="6.30476">
        <ele>852</ele>
        <time>2005-05-11T07:52:02Z</time>
      </trkpt>
      <trkpt lat="45.66811" lon="6.30491">
        <ele>853</ele>
        <time>2005-05-11T07:52:15Z</time>
      </trkpt>
      <trkpt lat="45.66814" lon="6.3051">
        <ele>856</ele>
        <time>2005-05-11T07:52:38Z</time>
      </trkpt>
      <trkpt lat="45.66811" lon="6.30543">
        <ele>860</ele>
        <time>2005-05-11T07:53:14Z</time>
      </trkpt>
      <trkpt lat="45.66817" lon="6.30592">
        <ele>865</ele>
        <time>2005-05-11T07:53:45Z</time>
      </trkpt>
      <trkpt lat="45.66817" lon="6.30609">
        <ele>867</ele>
        <time>2005-05-11T07:53:54Z</time>
      </trkpt>
      <trkpt lat="45.66814" lon="6.3064">
        <ele>870</ele>
        <time>2005-05-11T07:54:15Z</time>
      </trkpt>
      <trkpt lat="45.66816" lon="6.30654">
        <ele>872</ele>
        <time>2005-05-11T07:54:28Z</time>
      </trkpt>
      <trkpt lat="45.66828" lon="6.3068">
        <ele>875</ele>
        <time>2005-05-11T07:55:10Z</time>
      </trkpt>
      <trkpt lat="45.66827" lon="6.30698">
        <ele>877</ele>
        <time>2005-05-11T07:55:22Z</time>
      </trkpt>
      <trkpt lat="45.66821" lon="6.30733">
        <ele>880</ele>
        <time>2005-05-11T07:55:44Z</time>
      </trkpt>
      <trkpt lat="45.6682" lon="6.30749">
        <ele>883</ele>
        <time>2005-05-11T07:55:55Z</time>
      </trkpt>
      <trkpt lat="45.66831" lon="6.30763">
        <ele>885</ele>
        <time>2005-05-11T07:56:09Z</time>
      </trkpt>
      <trkpt lat="45.6684" lon="6.30771">
        <ele>888</ele>
        <time>2005-05-11T07:56:24Z</time>
      </trkpt>
      <trkpt lat="45.66853" lon="6.30768">
        <ele>889</ele>
        <time>2005-05-11T07:56:34Z</time>
      </trkpt>
      <trkpt lat="45.66862" lon="6.3076">
        <ele>892</ele>
        <time>2005-05-11T07:56:54Z</time>
      </trkpt>
      <trkpt lat="45.66873" lon="6.30739">
        <ele>897</ele>
        <time>2005-05-11T07:57:34Z</time>
      </trkpt>
      <trkpt lat="45.66879" lon="6.30724">
        <ele>898</ele>
        <time>2005-05-11T07:58:36Z</time>
      </trkpt>
      <trkpt lat="45.66884" lon="6.30699">
        <ele>899</ele>
        <time>2005-05-11T07:58:51Z</time>
      </trkpt>
      <trkpt lat="45.66892" lon="6.30671">
        <ele>902</ele>
        <time>2005-05-11T07:59:06Z</time>
      </trkpt>
      <trkpt lat="45.66894" lon="6.30641">
        <ele>904</ele>
        <time>2005-05-11T07:59:20Z</time>
      </trkpt>
      <trkpt lat="45.66898" lon="6.30626">
        <ele>905</ele>
        <time>2005-05-11T07:59:27Z</time>
      </trkpt>
      <trkpt lat="45.66907" lon="6.30621">
        <ele>907</ele>
        <time>2005-05-11T07:59:33Z</time>
      </trkpt>
      <trkpt lat="45.66915" lon="6.30627">
        <ele>907</ele>
        <time>2005-05-11T07:59:39Z</time>
      </trkpt>
      <trkpt lat="45.66938" lon="6.30685">
        <ele>910</ele>
        <time>2005-05-11T08:00:09Z</time>
      </trkpt>
      <trkpt lat="45.66945" lon="6.30696">
        <ele>911</ele>
        <time>2005-05-11T08:00:15Z</time>
      </trkpt>
      <trkpt lat="45.6699" lon="6.30726">
        <ele>912</ele>
        <time>2005-05-11T08:01:22Z</time>
      </trkpt>
      <trkpt lat="45.66997" lon="6.30736">
        <ele>912</ele>
        <time>2005-05-11T08:01:28Z</time>
      </trkpt>
      <trkpt lat="45.67013" lon="6.30771">
        <ele>913</ele>
        <time>2005-05-11T08:01:45Z</time>
      </trkpt>
      <trkpt lat="45.67021" lon="6.30795">
        <ele>914</ele>
        <time>2005-05-11T08:01:56Z</time>
      </trkpt>
      <trkpt lat="45.67026" lon="6.30804">
        <ele>915</ele>
        <time>2005-05-11T08:02:27Z</time>
      </trkpt>
      <trkpt lat="45.67036" lon="6.3081">
        <ele>915</ele>
        <time>2005-05-11T08:03:10Z</time>
      </trkpt>
      <trkpt lat="45.67041" lon="6.3082">
        <ele>915</ele>
        <time>2005-05-11T08:03:18Z</time>
      </trkpt>
      <trkpt lat="45.67067" lon="6.30842">
        <ele>914</ele>
        <time>2005-05-11T08:04:29Z</time>
      </trkpt>
      <trkpt lat="45.6713" lon="6.30874">
        <ele>913</ele>
        <time>2005-05-11T08:04:49Z</time>
      </trkpt>
      <trkpt lat="45.67175" lon="6.30893">
        <ele>915</ele>
        <time>2005-05-11T08:04:59Z</time>
      </trkpt>
      <trkpt lat="45.67198" lon="6.30901">
        <ele>916</ele>
        <time>2005-05-11T08:05:05Z</time>
      </trkpt>
      <trkpt lat="45.67227" lon="6.30906">
        <ele>918</ele>
        <time>2005-05-11T08:05:14Z</time>
      </trkpt>
      <trkpt lat="45.67245" lon="6.30908">
        <ele>918</ele>
        <time>2005-05-11T08:05:20Z</time>
      </trkpt>
      <trkpt lat="45.6731" lon="6.30922">
        <ele>917</ele>
        <time>2005-05-11T08:05:44Z</time>
      </trkpt>
      <trkpt lat="45.67377" lon="6.30945">
        <ele>902</ele>
        <time>2005-05-11T08:06:06Z</time>
      </trkpt>
      <trkpt lat="45.67546" lon="6.31015">
        <ele>889</ele>
        <time>2005-05-11T08:06:26Z</time>
      </trkpt>
      <trkpt lat="45.67561" lon="6.31031">
        <ele>889</ele>
        <time>2005-05-11T08:06:28Z</time>
      </trkpt>
      <trkpt lat="45.67579" lon="6.31071">
        <ele>887</ele>
        <time>2005-05-11T08:06:32Z</time>
      </trkpt>
      <trkpt lat="45.67625" lon="6.31131">
        <ele>887</ele>
        <time>2005-05-11T08:06:39Z</time>
      </trkpt>
      <trkpt lat="45.67637" lon="6.31141">
        <ele>888</ele>
        <time>2005-05-11T08:06:41Z</time>
      </trkpt>
      <trkpt lat="45.67656" lon="6.31153">
        <ele>888</ele>
        <time>2005-05-11T08:06:45Z</time>
      </trkpt>
      <trkpt lat="45.67674" lon="6.31162">
        <ele>888</ele>
        <time>2005-05-11T08:06:49Z</time>
      </trkpt>
      <trkpt lat="45.677" lon="6.31164">
        <ele>889</ele>
        <time>2005-05-11T08:06:55Z</time>
      </trkpt>
      <trkpt lat="45.6776" lon="6.3116">
        <ele>880</ele>
        <time>2005-05-11T08:07:10Z</time>
      </trkpt>
      <trkpt lat="45.67773" lon="6.31157">
        <ele>880</ele>
        <time>2005-05-11T08:07:13Z</time>
      </trkpt>
      <trkpt lat="45.67829" lon="6.31127">
        <ele>877</ele>
        <time>2005-05-11T08:07:25Z</time>
      </trkpt>
      <trkpt lat="45.67839" lon="6.3112">
        <ele>877</ele>
        <time>2005-05-11T08:07:27Z</time>
      </trkpt>
      <trkpt lat="45.67879" lon="6.31102">
        <ele>876</ele>
        <time>2005-05-11T08:07:35Z</time>
      </trkpt>
      <trkpt lat="45.6795" lon="6.31095">
        <ele>876</ele>
        <time>2005-05-11T08:07:37Z</time>
      </trkpt>
      <trkpt lat="45.67977" lon="6.31086">
        <ele>877</ele>
        <time>2005-05-11T08:07:43Z</time>
      </trkpt>
      <trkpt lat="45.67963" lon="6.31069">
        <ele>877</ele>
        <time>2005-05-11T08:07:45Z</time>
      </trkpt>
      <trkpt lat="45.68006" lon="6.31056">
        <ele>876</ele>
        <time>2005-05-11T08:07:53Z</time>
      </trkpt>
      <trkpt lat="45.67999" lon="6.31038">
        <ele>876</ele>
        <time>2005-05-11T08:07:55Z</time>
      </trkpt>
      <trkpt lat="45.68027" lon="6.31037">
        <ele>877</ele>
        <time>2005-05-11T08:07:58Z</time>
      </trkpt>
      <trkpt lat="45.68063" lon="6.31026">
        <ele>875</ele>
        <time>2005-05-11T08:08:07Z</time>
      </trkpt>
      <trkpt lat="45.68078" lon="6.31032">
        <ele>874</ele>
        <time>2005-05-11T08:08:10Z</time>
      </trkpt>
      <trkpt lat="45.68089" lon="6.31029">
        <ele>875</ele>
        <time>2005-05-11T08:08:13Z</time>
      </trkpt>
      <trkpt lat="45.68113" lon="6.31026">
        <ele>876</ele>
        <time>2005-05-11T08:08:20Z</time>
      </trkpt>
      <trkpt lat="45.68131" lon="6.31016">
        <ele>876</ele>
        <time>2005-05-11T08:08:36Z</time>
      </trkpt>
      <trkpt lat="45.68137" lon="6.31014">
        <ele>876</ele>
        <time>2005-05-11T08:08:56Z</time>
      </trkpt>
      <trkpt lat="45.68147" lon="6.31018">
        <ele>876</ele>
        <time>2005-05-11T08:09:07Z</time>
      </trkpt>
      <trkpt lat="45.68168" lon="6.31009">
        <ele>874</ele>
        <time>2005-05-11T08:09:18Z</time>
      </trkpt>
      <trkpt lat="45.68197" lon="6.31003">
        <ele>875</ele>
        <time>2005-05-11T08:09:27Z</time>
      </trkpt>
      <trkpt lat="45.68236" lon="6.30999">
        <ele>874</ele>
        <time>2005-05-11T08:09:39Z</time>
      </trkpt>
      <trkpt lat="45.68288" lon="6.30998">
        <ele>868</ele>
        <time>2005-05-11T08:09:51Z</time>
      </trkpt>
      <trkpt lat="45.68327" lon="6.30991">
        <ele>863</ele>
        <time>2005-05-11T08:10:00Z</time>
      </trkpt>
      <trkpt lat="45.68359" lon="6.30972">
        <ele>862</ele>
        <time>2005-05-11T08:10:28Z</time>
      </trkpt>
      <trkpt lat="45.6837" lon="6.30963">
        <ele>861</ele>
        <time>2005-05-11T08:10:33Z</time>
      </trkpt>
      <trkpt lat="45.68393" lon="6.30954">
        <ele>863</ele>
        <time>2005-05-11T08:10:43Z</time>
      </trkpt>
      <trkpt lat="45.68402" lon="6.30946">
        <ele>861</ele>
        <time>2005-05-11T08:10:47Z</time>
      </trkpt>
      <trkpt lat="45.68418" lon="6.30925">
        <ele>853</ele>
        <time>2005-05-11T08:10:55Z</time>
      </trkpt>
      <trkpt lat="45.68453" lon="6.30898">
        <ele>846</ele>
        <time>2005-05-11T08:11:04Z</time>
      </trkpt>
      <trkpt lat="45.68467" lon="6.30892">
        <ele>847</ele>
        <time>2005-05-11T08:11:07Z</time>
      </trkpt>
      <trkpt lat="45.68515" lon="6.3089">
        <ele>846</ele>
        <time>2005-05-11T08:12:37Z</time>
      </trkpt>
      <trkpt lat="45.68472" lon="6.30872">
        <ele>847</ele>
        <time>2005-05-11T08:12:54Z</time>
      </trkpt>
      <trkpt lat="45.68462" lon="6.30864">
        <ele>847</ele>
        <time>2005-05-11T08:12:58Z</time>
      </trkpt>
      <trkpt lat="45.68456" lon="6.30852">
        <ele>847</ele>
        <time>2005-05-11T08:13:01Z</time>
      </trkpt>
      <trkpt lat="45.6844" lon="6.308">
        <ele>848</ele>
        <time>2005-05-11T08:13:14Z</time>
      </trkpt>
      <trkpt lat="45.68438" lon="6.30785">
        <ele>848</ele>
        <time>2005-05-11T08:13:18Z</time>
      </trkpt>
      <trkpt lat="45.68439" lon="6.30772">
        <ele>850</ele>
        <time>2005-05-11T08:13:22Z</time>
      </trkpt>
      <trkpt lat="45.68448" lon="6.30749">
        <ele>851</ele>
        <time>2005-05-11T08:13:30Z</time>
      </trkpt>
      <trkpt lat="45.68449" lon="6.30734">
        <ele>852</ele>
        <time>2005-05-11T08:13:35Z</time>
      </trkpt>
      <trkpt lat="45.68445" lon="6.30705">
        <ele>853</ele>
        <time>2005-05-11T08:13:46Z</time>
      </trkpt>
      <trkpt lat="45.68437" lon="6.30677">
        <ele>856</ele>
        <time>2005-05-11T08:13:57Z</time>
      </trkpt>
      <trkpt lat="45.68431" lon="6.30665">
        <ele>857</ele>
        <time>2005-05-11T08:14:02Z</time>
      </trkpt>
      <trkpt lat="45.68405" lon="6.30643">
        <ele>859</ele>
        <time>2005-05-11T08:14:18Z</time>
      </trkpt>
      <trkpt lat="45.68369" lon="6.30621">
        <ele>861</ele>
        <time>2005-05-11T08:14:39Z</time>
      </trkpt>
      <trkpt lat="45.68361" lon="6.30614">
        <ele>862</ele>
        <time>2005-05-11T08:14:44Z</time>
      </trkpt>
      <trkpt lat="45.68333" lon="6.30599">
        <ele>865</ele>
        <time>2005-05-11T08:15:03Z</time>
      </trkpt>
      <trkpt lat="45.68315" lon="6.30595">
        <ele>867</ele>
        <time>2005-05-11T08:15:15Z</time>
      </trkpt>
      <trkpt lat="45.68266" lon="6.30597">
        <ele>873</ele>
        <time>2005-05-11T08:15:48Z</time>
      </trkpt>
      <trkpt lat="45.68257" lon="6.306">
        <ele>874</ele>
        <time>2005-05-11T08:15:56Z</time>
      </trkpt>
      <trkpt lat="45.68217" lon="6.30603">
        <ele>878</ele>
        <time>2005-05-11T08:16:26Z</time>
      </trkpt>
      <trkpt lat="45.68208" lon="6.30606">
        <ele>879</ele>
        <time>2005-05-11T08:16:34Z</time>
      </trkpt>
      <trkpt lat="45.68199" lon="6.30605">
        <ele>881</ele>
        <time>2005-05-11T08:16:41Z</time>
      </trkpt>
      <trkpt lat="45.68194" lon="6.30594">
        <ele>881</ele>
        <time>2005-05-11T08:16:49Z</time>
      </trkpt>
      <trkpt lat="45.68193" lon="6.3058">
        <ele>881</ele>
        <time>2005-05-11T08:16:57Z</time>
      </trkpt>
      <trkpt lat="45.68197" lon="6.30564">
        <ele>883</ele>
        <time>2005-05-11T08:17:05Z</time>
      </trkpt>
      <trkpt lat="45.68205" lon="6.30553">
        <ele>883</ele>
        <time>2005-05-11T08:17:12Z</time>
      </trkpt>
      <trkpt lat="45.68223" lon="6.30533">
        <ele>884</ele>
        <time>2005-05-11T08:17:25Z</time>
      </trkpt>
      <trkpt lat="45.68253" lon="6.3051">
        <ele>886</ele>
        <time>2005-05-11T08:17:46Z</time>
      </trkpt>
      <trkpt lat="45.68262" lon="6.30505">
        <ele>888</ele>
        <time>2005-05-11T08:17:54Z</time>
      </trkpt>
      <trkpt lat="45.68299" lon="6.30471">
        <ele>892</ele>
        <time>2005-05-11T08:18:27Z</time>
      </trkpt>
      <trkpt lat="45.68308" lon="6.30465">
        <ele>894</ele>
        <time>2005-05-11T08:18:34Z</time>
      </trkpt>
      <trkpt lat="45.68314" lon="6.30456">
        <ele>896</ele>
        <time>2005-05-11T08:18:44Z</time>
      </trkpt>
      <trkpt lat="45.68349" lon="6.30443">
        <ele>897</ele>
        <time>2005-05-11T08:19:34Z</time>
      </trkpt>
      <trkpt lat="45.68368" lon="6.30427">
        <ele>897</ele>
        <time>2005-05-11T08:19:45Z</time>
      </trkpt>
      <trkpt lat="45.68389" lon="6.3042">
        <ele>899</ele>
        <time>2005-05-11T08:19:55Z</time>
      </trkpt>
      <trkpt lat="45.68398" lon="6.30422">
        <ele>899</ele>
        <time>2005-05-11T08:20:04Z</time>
      </trkpt>
      <trkpt lat="45.68398" lon="6.30427">
        <ele>898</ele>
        <time>2005-05-11T08:23:52Z</time>
      </trkpt>
      <trkpt lat="45.68448" lon="6.30446">
        <ele>902</ele>
        <time>2005-05-11T08:24:17Z</time>
      </trkpt>
      <trkpt lat="45.68477" lon="6.30448">
        <ele>905</ele>
        <time>2005-05-11T08:24:33Z</time>
      </trkpt>
      <trkpt lat="45.68507" lon="6.30444">
        <ele>905</ele>
        <time>2005-05-11T08:24:48Z</time>
      </trkpt>
      <trkpt lat="45.68564" lon="6.30429">
        <ele>908</ele>
        <time>2005-05-11T08:25:37Z</time>
      </trkpt>
      <trkpt lat="45.68614" lon="6.3041">
        <ele>909</ele>
        <time>2005-05-11T08:25:59Z</time>
      </trkpt>
      <trkpt lat="45.68671" lon="6.30394">
        <ele>905</ele>
        <time>2005-05-11T08:26:16Z</time>
      </trkpt>
      <trkpt lat="45.6871" lon="6.30379">
        <ele>904</ele>
        <time>2005-05-11T08:27:30Z</time>
      </trkpt>
      <trkpt lat="45.68707" lon="6.30378">
        <ele>904</ele>
        <time>2005-05-11T08:27:39Z</time>
      </trkpt>
      <trkpt lat="45.68723" lon="6.30356">
        <ele>906</ele>
        <time>2005-05-11T08:27:51Z</time>
      </trkpt>
      <trkpt lat="45.6873" lon="6.30349">
        <ele>908</ele>
        <time>2005-05-11T08:27:57Z</time>
      </trkpt>
      <trkpt lat="45.68737" lon="6.30338">
        <ele>908</ele>
        <time>2005-05-11T08:28:04Z</time>
      </trkpt>
      <trkpt lat="45.6875" lon="6.30328">
        <ele>911</ele>
        <time>2005-05-11T08:28:37Z</time>
      </trkpt>
      <trkpt lat="45.68767" lon="6.30308">
        <ele>912</ele>
        <time>2005-05-11T08:28:53Z</time>
      </trkpt>
      <trkpt lat="45.68776" lon="6.30295">
        <ele>913</ele>
        <time>2005-05-11T08:29:02Z</time>
      </trkpt>
      <trkpt lat="45.68779" lon="6.30283">
        <ele>916</ele>
        <time>2005-05-11T08:29:12Z</time>
      </trkpt>
      <trkpt lat="45.68773" lon="6.3029">
        <ele>918</ele>
        <time>2005-05-11T08:29:19Z</time>
      </trkpt>
      <trkpt lat="45.68747" lon="6.30299">
        <ele>922</ele>
        <time>2005-05-11T08:29:43Z</time>
      </trkpt>
      <trkpt lat="45.68737" lon="6.30297">
        <ele>923</ele>
        <time>2005-05-11T08:29:51Z</time>
      </trkpt>
      <trkpt lat="45.68719" lon="6.30302">
        <ele>925</ele>
        <time>2005-05-11T08:30:07Z</time>
      </trkpt>
      <trkpt lat="45.68695" lon="6.30319">
        <ele>927</ele>
        <time>2005-05-11T08:30:32Z</time>
      </trkpt>
      <trkpt lat="45.68686" lon="6.30326">
        <ele>929</ele>
        <time>2005-05-11T08:30:39Z</time>
      </trkpt>
      <trkpt lat="45.68668" lon="6.30334">
        <ele>931</ele>
        <time>2005-05-11T08:30:53Z</time>
      </trkpt>
      <trkpt lat="45.68647" lon="6.30331">
        <ele>936</ele>
        <time>2005-05-11T08:31:12Z</time>
      </trkpt>
      <trkpt lat="45.6864" lon="6.30327">
        <ele>938</ele>
        <time>2005-05-11T08:31:25Z</time>
      </trkpt>
      <trkpt lat="45.68651" lon="6.30315">
        <ele>942</ele>
        <time>2005-05-11T08:31:46Z</time>
      </trkpt>
      <trkpt lat="45.68672" lon="6.30302">
        <ele>947</ele>
        <time>2005-05-11T08:32:20Z</time>
      </trkpt>
      <trkpt lat="45.68673" lon="6.30286">
        <ele>949</ele>
        <time>2005-05-11T08:32:38Z</time>
      </trkpt>
      <trkpt lat="45.68655" lon="6.30277">
        <ele>952</ele>
        <time>2005-05-11T08:33:02Z</time>
      </trkpt>
      <trkpt lat="45.68667" lon="6.30255">
        <ele>957</ele>
        <time>2005-05-11T08:33:35Z</time>
      </trkpt>
      <trkpt lat="45.68661" lon="6.30229">
        <ele>962</ele>
        <time>2005-05-11T08:34:09Z</time>
      </trkpt>
      <trkpt lat="45.68649" lon="6.30224">
        <ele>964</ele>
        <time>2005-05-11T08:35:03Z</time>
      </trkpt>
      <trkpt lat="45.6864" lon="6.30231">
        <ele>966</ele>
        <time>2005-05-11T08:35:12Z</time>
      </trkpt>
      <trkpt lat="45.68584" lon="6.30242">
        <ele>972</ele>
        <time>2005-05-11T08:35:53Z</time>
      </trkpt>
      <trkpt lat="45.68554" lon="6.30234">
        <ele>975</ele>
        <time>2005-05-11T08:36:17Z</time>
      </trkpt>
      <trkpt lat="45.68538" lon="6.30235">
        <ele>975</ele>
        <time>2005-05-11T08:37:51Z</time>
      </trkpt>
      <trkpt lat="45.6853" lon="6.30239">
        <ele>978</ele>
        <time>2005-05-11T08:38:00Z</time>
      </trkpt>
      <trkpt lat="45.68504" lon="6.30231">
        <ele>982</ele>
        <time>2005-05-11T08:38:25Z</time>
      </trkpt>
      <trkpt lat="45.68466" lon="6.3021">
        <ele>987</ele>
        <time>2005-05-11T08:38:59Z</time>
      </trkpt>
      <trkpt lat="45.68447" lon="6.30203">
        <ele>990</ele>
        <time>2005-05-11T08:39:17Z</time>
      </trkpt>
      <trkpt lat="45.68428" lon="6.30199">
        <ele>993</ele>
        <time>2005-05-11T08:39:31Z</time>
      </trkpt>
      <trkpt lat="45.6842" lon="6.30192">
        <ele>994</ele>
        <time>2005-05-11T08:39:39Z</time>
      </trkpt>
      <trkpt lat="45.68402" lon="6.30182">
        <ele>998</ele>
        <time>2005-05-11T08:40:17Z</time>
      </trkpt>
      <trkpt lat="45.68392" lon="6.30174">
        <ele>1002</ele>
        <time>2005-05-11T08:40:38Z</time>
      </trkpt>
      <trkpt lat="45.68384" lon="6.30171">
        <ele>1003</ele>
        <time>2005-05-11T08:40:59Z</time>
      </trkpt>
      <trkpt lat="45.68364" lon="6.30157">
        <ele>1010</ele>
        <time>2005-05-11T08:41:46Z</time>
      </trkpt>
      <trkpt lat="45.6835" lon="6.30153">
        <ele>1014</ele>
        <time>2005-05-11T08:42:39Z</time>
      </trkpt>
      <trkpt lat="45.68331" lon="6.30145">
        <ele>1020</ele>
        <time>2005-05-11T08:43:11Z</time>
      </trkpt>
      <trkpt lat="45.68319" lon="6.30146">
        <ele>1024</ele>
        <time>2005-05-11T08:43:39Z</time>
      </trkpt>
      <trkpt lat="45.68308" lon="6.30125">
        <ele>1031</ele>
        <time>2005-05-11T08:44:16Z</time>
      </trkpt>
      <trkpt lat="45.68303" lon="6.3011">
        <ele>1033</ele>
        <time>2005-05-11T08:44:37Z</time>
      </trkpt>
      <trkpt lat="45.68293" lon="6.30103">
        <ele>1035</ele>
        <time>2005-05-11T08:44:53Z</time>
      </trkpt>
      <trkpt lat="45.68283" lon="6.30099">
        <ele>1037</ele>
        <time>2005-05-11T08:45:09Z</time>
      </trkpt>
      <trkpt lat="45.6828" lon="6.30088">
        <ele>1039</ele>
        <time>2005-05-11T08:45:24Z</time>
      </trkpt>
      <trkpt lat="45.68252" lon="6.30064">
        <ele>1043</ele>
        <time>2005-05-11T08:46:10Z</time>
      </trkpt>
      <trkpt lat="45.68243" lon="6.30065">
        <ele>1043</ele>
        <time>2005-05-11T08:46:19Z</time>
      </trkpt>
      <trkpt lat="45.68236" lon="6.30072">
        <ele>1046</ele>
        <time>2005-05-11T08:46:32Z</time>
      </trkpt>
      <trkpt lat="45.68218" lon="6.30082">
        <ele>1047</ele>
        <time>2005-05-11T08:46:53Z</time>
      </trkpt>
      <trkpt lat="45.68211" lon="6.30081">
        <ele>1047</ele>
        <time>2005-05-11T08:49:32Z</time>
      </trkpt>
      <trkpt lat="45.68208" lon="6.30072">
        <ele>1048</ele>
        <time>2005-05-11T08:50:28Z</time>
      </trkpt>
      <trkpt lat="45.682" lon="6.30084">
        <ele>1047</ele>
        <time>2005-05-11T08:50:42Z</time>
      </trkpt>
      <trkpt lat="45.68191" lon="6.30091">
        <ele>1047</ele>
        <time>2005-05-11T08:50:47Z</time>
      </trkpt>
      <trkpt lat="45.6817" lon="6.30098">
        <ele>1048</ele>
        <time>2005-05-11T08:50:58Z</time>
      </trkpt>
      <trkpt lat="45.68139" lon="6.30112">
        <ele>1054</ele>
        <time>2005-05-11T08:51:22Z</time>
      </trkpt>
      <trkpt lat="45.68129" lon="6.30111">
        <ele>1056</ele>
        <time>2005-05-11T08:51:35Z</time>
      </trkpt>
      <trkpt lat="45.68118" lon="6.30116">
        <ele>1058</ele>
        <time>2005-05-11T08:51:58Z</time>
      </trkpt>
      <trkpt lat="45.68097" lon="6.30113">
        <ele>1063</ele>
        <time>2005-05-11T08:52:35Z</time>
      </trkpt>
      <trkpt lat="45.68079" lon="6.30104">
        <ele>1068</ele>
        <time>2005-05-11T08:53:03Z</time>
      </trkpt>
      <trkpt lat="45.68094" lon="6.301">
        <ele>1068</ele>
        <time>2005-05-11T08:54:35Z</time>
      </trkpt>
      <trkpt lat="45.68057" lon="6.30084">
        <ele>1069</ele>
        <time>2005-05-11T08:54:47Z</time>
      </trkpt>
      <trkpt lat="45.68075" lon="6.30098">
        <ele>1066</ele>
        <time>2005-05-11T08:55:14Z</time>
      </trkpt>
      <trkpt lat="45.68065" lon="6.30102">
        <ele>1063</ele>
        <time>2005-05-11T08:55:20Z</time>
      </trkpt>
      <trkpt lat="45.68056" lon="6.30109">
        <ele>1060</ele>
        <time>2005-05-11T08:55:24Z</time>
      </trkpt>
      <trkpt lat="45.68033" lon="6.30113">
        <ele>1059</ele>
        <time>2005-05-11T08:55:32Z</time>
      </trkpt>
      <trkpt lat="45.68009" lon="6.3011">
        <ele>1056</ele>
        <time>2005-05-11T08:55:44Z</time>
      </trkpt>
      <trkpt lat="45.67998" lon="6.30101">
        <ele>1056</ele>
        <time>2005-05-11T08:55:51Z</time>
      </trkpt>
      <trkpt lat="45.67962" lon="6.30126">
        <ele>1045</ele>
        <time>2005-05-11T08:56:43Z</time>
      </trkpt>
      <trkpt lat="45.67951" lon="6.30137">
        <ele>1041</ele>
        <time>2005-05-11T08:56:50Z</time>
      </trkpt>
      <trkpt lat="45.67931" lon="6.30177">
        <ele>1028</ele>
        <time>2005-05-11T08:57:03Z</time>
      </trkpt>
      <trkpt lat="45.67922" lon="6.30188">
        <ele>1027</ele>
        <time>2005-05-11T08:57:07Z</time>
      </trkpt>
      <trkpt lat="45.67916" lon="6.30202">
        <ele>1025</ele>
        <time>2005-05-11T08:57:13Z</time>
      </trkpt>
      <trkpt lat="45.67917" lon="6.30218">
        <ele>1016</ele>
        <time>2005-05-11T08:57:20Z</time>
      </trkpt>
      <trkpt lat="45.67915" lon="6.30233">
        <ele>1011</ele>
        <time>2005-05-11T08:57:26Z</time>
      </trkpt>
      <trkpt lat="45.67911" lon="6.30249">
        <ele>1000</ele>
        <time>2005-05-11T08:57:32Z</time>
      </trkpt>
      <trkpt lat="45.67894" lon="6.30254">
        <ele>999</ele>
        <time>2005-05-11T08:57:34Z</time>
      </trkpt>
      <trkpt lat="45.67867" lon="6.30268">
        <ele>994</ele>
        <time>2005-05-11T08:57:38Z</time>
      </trkpt>
      <trkpt lat="45.67785" lon="6.30351">
        <ele>990</ele>
        <time>2005-05-11T08:57:54Z</time>
      </trkpt>
      <trkpt lat="45.67777" lon="6.30361">
        <ele>990</ele>
        <time>2005-05-11T08:57:56Z</time>
      </trkpt>
      <trkpt lat="45.67765" lon="6.30372">
        <ele>992</ele>
        <time>2005-05-11T08:57:59Z</time>
      </trkpt>
      <trkpt lat="45.67754" lon="6.30376">
        <ele>991</ele>
        <time>2005-05-11T08:58:02Z</time>
      </trkpt>
      <trkpt lat="45.67743" lon="6.30386">
        <ele>986</ele>
        <time>2005-05-11T08:58:05Z</time>
      </trkpt>
      <trkpt lat="45.67715" lon="6.30419">
        <ele>978</ele>
        <time>2005-05-11T08:58:11Z</time>
      </trkpt>
      <trkpt lat="45.67655" lon="6.30476">
        <ele>978</ele>
        <time>2005-05-11T08:58:21Z</time>
      </trkpt>
      <trkpt lat="45.67622" lon="6.30494">
        <ele>981</ele>
        <time>2005-05-11T08:58:27Z</time>
      </trkpt>
      <trkpt lat="45.67611" lon="6.30491">
        <ele>982</ele>
        <time>2005-05-11T08:58:30Z</time>
      </trkpt>
      <trkpt lat="45.67603" lon="6.30475">
        <ele>983</ele>
        <time>2005-05-11T08:58:34Z</time>
      </trkpt>
      <trkpt lat="45.67571" lon="6.30429">
        <ele>985</ele>
        <time>2005-05-11T08:58:46Z</time>
      </trkpt>
      <trkpt lat="45.67562" lon="6.30408">
        <ele>986</ele>
        <time>2005-05-11T08:58:51Z</time>
      </trkpt>
      <trkpt lat="45.67552" lon="6.30393">
        <ele>988</ele>
        <time>2005-05-11T08:58:57Z</time>
      </trkpt>
      <trkpt lat="45.67543" lon="6.30381">
        <ele>989</ele>
        <time>2005-05-11T08:59:03Z</time>
      </trkpt>
      <trkpt lat="45.67531" lon="6.30373">
        <ele>987</ele>
        <time>2005-05-11T08:59:09Z</time>
      </trkpt>
      <trkpt lat="45.67521" lon="6.30361">
        <ele>987</ele>
        <time>2005-05-11T08:59:15Z</time>
      </trkpt>
      <trkpt lat="45.67505" lon="6.30331">
        <ele>989</ele>
        <time>2005-05-11T08:59:27Z</time>
      </trkpt>
      <trkpt lat="45.67495" lon="6.30323">
        <ele>989</ele>
        <time>2005-05-11T08:59:34Z</time>
      </trkpt>
      <trkpt lat="45.67481" lon="6.30324">
        <ele>990</ele>
        <time>2005-05-11T08:59:42Z</time>
      </trkpt>
      <trkpt lat="45.6746" lon="6.30308">
        <ele>991</ele>
        <time>2005-05-11T08:59:55Z</time>
      </trkpt>
      <trkpt lat="45.67433" lon="6.30277">
        <ele>992</ele>
        <time>2005-05-11T09:00:12Z</time>
      </trkpt>
      <trkpt lat="45.67414" lon="6.3026">
        <ele>991</ele>
        <time>2005-05-11T09:00:20Z</time>
      </trkpt>
      <trkpt lat="45.67393" lon="6.30245">
        <ele>991</ele>
        <time>2005-05-11T09:00:28Z</time>
      </trkpt>
      <trkpt lat="45.67369" lon="6.30237">
        <ele>992</ele>
        <time>2005-05-11T09:00:36Z</time>
      </trkpt>
      <trkpt lat="45.67298" lon="6.30224">
        <ele>996</ele>
        <time>2005-05-11T09:01:04Z</time>
      </trkpt>
      <trkpt lat="45.67241" lon="6.30226">
        <ele>982</ele>
        <time>2005-05-11T09:01:27Z</time>
      </trkpt>
      <trkpt lat="45.6722" lon="6.30225">
        <ele>979</ele>
        <time>2005-05-11T09:01:35Z</time>
      </trkpt>
      <trkpt lat="45.67129" lon="6.30335">
        <ele>978</ele>
        <time>2005-05-11T09:01:39Z</time>
      </trkpt>
      <trkpt lat="45.67121" lon="6.30352">
        <ele>980</ele>
        <time>2005-05-11T09:01:43Z</time>
      </trkpt>
      <trkpt lat="45.67118" lon="6.30343">
        <ele>980</ele>
        <time>2005-05-11T09:01:47Z</time>
      </trkpt>
      <trkpt lat="45.67105" lon="6.30359">
        <ele>977</ele>
        <time>2005-05-11T09:01:51Z</time>
      </trkpt>
      <trkpt lat="45.671" lon="6.30389">
        <ele>974</ele>
        <time>2005-05-11T09:02:50Z</time>
      </trkpt>
      <trkpt lat="45.6709" lon="6.30418">
        <ele>972</ele>
        <time>2005-05-11T09:03:00Z</time>
      </trkpt>
      <trkpt lat="45.67085" lon="6.30449">
        <ele>963</ele>
        <time>2005-05-11T09:03:11Z</time>
      </trkpt>
      <trkpt lat="45.6706" lon="6.30527">
        <ele>947</ele>
        <time>2005-05-11T09:03:37Z</time>
      </trkpt>
      <trkpt lat="45.67053" lon="6.30564">
        <ele>939</ele>
        <time>2005-05-11T09:03:48Z</time>
      </trkpt>
      <trkpt lat="45.67045" lon="6.30597">
        <ele>934</ele>
        <time>2005-05-11T09:03:57Z</time>
      </trkpt>
      <trkpt lat="45.67026" lon="6.30654">
        <ele>928</ele>
        <time>2005-05-11T09:04:10Z</time>
      </trkpt>
      <trkpt lat="45.67014" lon="6.30713">
        <ele>921</ele>
        <time>2005-05-11T09:04:20Z</time>
      </trkpt>
      <trkpt lat="45.67007" lon="6.30726">
        <ele>919</ele>
        <time>2005-05-11T09:04:24Z</time>
      </trkpt>
      <trkpt lat="45.67013" lon="6.3074">
        <ele>919</ele>
        <time>2005-05-11T09:04:28Z</time>
      </trkpt>
      <trkpt lat="45.6702" lon="6.30747">
        <ele>920</ele>
        <time>2005-05-11T09:04:33Z</time>
      </trkpt>
      <trkpt lat="45.67025" lon="6.3076">
        <ele>921</ele>
        <time>2005-05-11T09:04:37Z</time>
      </trkpt>
      <trkpt lat="45.67025" lon="6.30778">
        <ele>921</ele>
        <time>2005-05-11T09:04:41Z</time>
      </trkpt>
      <trkpt lat="45.67021" lon="6.30796">
        <ele>921</ele>
        <time>2005-05-11T09:04:45Z</time>
      </trkpt>
      <trkpt lat="45.66998" lon="6.30871">
        <ele>924</ele>
        <time>2005-05-11T09:05:04Z</time>
      </trkpt>
      <trkpt lat="45.66996" lon="6.30886">
        <ele>925</ele>
        <time>2005-05-11T09:05:08Z</time>
      </trkpt>
      <trkpt lat="45.66994" lon="6.30917">
        <ele>926</ele>
        <time>2005-05-11T09:05:18Z</time>
      </trkpt>
      <trkpt lat="45.66996" lon="6.30932">
        <ele>927</ele>
        <time>2005-05-11T09:05:23Z</time>
      </trkpt>
      <trkpt lat="45.67" lon="6.30943">
        <ele>928</ele>
        <time>2005-05-11T09:05:29Z</time>
      </trkpt>
      <trkpt lat="45.67024" lon="6.30941">
        <ele>930</ele>
        <time>2005-05-11T09:05:41Z</time>
      </trkpt>
      <trkpt lat="45.6711" lon="6.30945">
        <ele>939</ele>
        <time>2005-05-11T09:06:35Z</time>
      </trkpt>
      <trkpt lat="45.67257" lon="6.30971">
        <ele>948</ele>
        <time>2005-05-11T09:07:59Z</time>
      </trkpt>
      <trkpt lat="45.67262" lon="6.30961">
        <ele>948</ele>
        <time>2005-05-11T09:08:05Z</time>
      </trkpt>
      <trkpt lat="45.67266" lon="6.30974">
        <ele>949</ele>
        <time>2005-05-11T09:08:10Z</time>
      </trkpt>
      <trkpt lat="45.67337" lon="6.31014">
        <ele>955</ele>
        <time>2005-05-11T09:08:56Z</time>
      </trkpt>
      <trkpt lat="45.67353" lon="6.31027">
        <ele>956</ele>
        <time>2005-05-11T09:09:10Z</time>
      </trkpt>
      <trkpt lat="45.6737" lon="6.31051">
        <ele>958</ele>
        <time>2005-05-11T09:09:29Z</time>
      </trkpt>
      <trkpt lat="45.67377" lon="6.31067">
        <ele>959</ele>
        <time>2005-05-11T09:09:36Z</time>
      </trkpt>
      <trkpt lat="45.67382" lon="6.31084">
        <ele>960</ele>
        <time>2005-05-11T09:09:42Z</time>
      </trkpt>
      <trkpt lat="45.67383" lon="6.31102">
        <ele>962</ele>
        <time>2005-05-11T09:09:49Z</time>
      </trkpt>
      <trkpt lat="45.67378" lon="6.31113">
        <ele>963</ele>
        <time>2005-05-11T09:09:58Z</time>
      </trkpt>
      <trkpt lat="45.67368" lon="6.31111">
        <ele>964</ele>
        <time>2005-05-11T09:10:06Z</time>
      </trkpt>
      <trkpt lat="45.6736" lon="6.31096">
        <ele>965</ele>
        <time>2005-05-11T09:10:19Z</time>
      </trkpt>
      <trkpt lat="45.67351" lon="6.31082">
        <ele>966</ele>
        <time>2005-05-11T09:10:29Z</time>
      </trkpt>
      <trkpt lat="45.67339" lon="6.31074">
        <ele>968</ele>
        <time>2005-05-11T09:10:40Z</time>
      </trkpt>
      <trkpt lat="45.6733" lon="6.31082">
        <ele>968</ele>
        <time>2005-05-11T09:10:49Z</time>
      </trkpt>
      <trkpt lat="45.67314" lon="6.31101">
        <ele>971</ele>
        <time>2005-05-11T09:11:04Z</time>
      </trkpt>
      <trkpt lat="45.67304" lon="6.31104">
        <ele>972</ele>
        <time>2005-05-11T09:11:13Z</time>
      </trkpt>
      <trkpt lat="45.67264" lon="6.31088">
        <ele>975</ele>
        <time>2005-05-11T09:11:33Z</time>
      </trkpt>
      <trkpt lat="45.67251" lon="6.31086">
        <ele>976</ele>
        <time>2005-05-11T09:11:39Z</time>
      </trkpt>
      <trkpt lat="45.67229" lon="6.3109">
        <ele>978</ele>
        <time>2005-05-11T09:11:50Z</time>
      </trkpt>
      <trkpt lat="45.67219" lon="6.31099">
        <ele>979</ele>
        <time>2005-05-11T09:11:56Z</time>
      </trkpt>
      <trkpt lat="45.6722" lon="6.31109">
        <ele>979</ele>
        <time>2005-05-11T09:12:01Z</time>
      </trkpt>
      <trkpt lat="45.67227" lon="6.31111">
        <ele>979</ele>
        <time>2005-05-11T09:12:06Z</time>
      </trkpt>
      <trkpt lat="45.6723" lon="6.31105">
        <ele>978</ele>
        <time>2005-05-11T09:12:53Z</time>
      </trkpt>
      <trkpt lat="45.6724" lon="6.31109">
        <ele>977</ele>
        <time>2005-05-11T09:12:55Z</time>
      </trkpt>
      <trkpt lat="45.67261" lon="6.31101">
        <ele>980</ele>
        <time>2005-05-11T09:13:04Z</time>
      </trkpt>
      <trkpt lat="45.67292" lon="6.31112">
        <ele>978</ele>
        <time>2005-05-11T09:13:16Z</time>
      </trkpt>
      <trkpt lat="45.6731" lon="6.31123">
        <ele>978</ele>
        <time>2005-05-11T09:13:22Z</time>
      </trkpt>
      <trkpt lat="45.67318" lon="6.31133">
        <ele>979</ele>
        <time>2005-05-11T09:13:25Z</time>
      </trkpt>
      <trkpt lat="45.67347" lon="6.31191">
        <ele>976</ele>
        <time>2005-05-11T09:13:36Z</time>
      </trkpt>
      <trkpt lat="45.67364" lon="6.31231">
        <ele>977</ele>
        <time>2005-05-11T09:13:45Z</time>
      </trkpt>
      <trkpt lat="45.67369" lon="6.31254">
        <ele>983</ele>
        <time>2005-05-11T09:14:00Z</time>
      </trkpt>
      <trkpt lat="45.67376" lon="6.31263">
        <ele>983</ele>
        <time>2005-05-11T09:14:12Z</time>
      </trkpt>
      <trkpt lat="45.67383" lon="6.31319">
        <ele>985</ele>
        <time>2005-05-11T09:14:36Z</time>
      </trkpt>
      <trkpt lat="45.67386" lon="6.31333">
        <ele>984</ele>
        <time>2005-05-11T09:14:41Z</time>
      </trkpt>
      <trkpt lat="45.67389" lon="6.31364">
        <ele>984</ele>
        <time>2005-05-11T09:14:49Z</time>
      </trkpt>
      <trkpt lat="45.67389" lon="6.31398">
        <ele>984</ele>
        <time>2005-05-11T09:14:57Z</time>
      </trkpt>
      <trkpt lat="45.67397" lon="6.31441">
        <ele>985</ele>
        <time>2005-05-11T09:15:06Z</time>
      </trkpt>
      <trkpt lat="45.67401" lon="6.31456">
        <ele>988</ele>
        <time>2005-05-11T09:15:10Z</time>
      </trkpt>
      <trkpt lat="45.67408" lon="6.31464">
        <ele>989</ele>
        <time>2005-05-11T09:15:16Z</time>
      </trkpt>
      <trkpt lat="45.67414" lon="6.31474">
        <ele>990</ele>
        <time>2005-05-11T09:15:22Z</time>
      </trkpt>
      <trkpt lat="45.67419" lon="6.31487">
        <ele>989</ele>
        <time>2005-05-11T09:15:28Z</time>
      </trkpt>
      <trkpt lat="45.6742" lon="6.31501">
        <ele>988</ele>
        <time>2005-05-11T09:15:32Z</time>
      </trkpt>
      <trkpt lat="45.67399" lon="6.31538">
        <ele>988</ele>
        <time>2005-05-11T09:15:41Z</time>
      </trkpt>
      <trkpt lat="45.67379" lon="6.3157">
        <ele>991</ele>
        <time>2005-05-11T09:15:51Z</time>
      </trkpt>
      <trkpt lat="45.67365" lon="6.31588">
        <ele>992</ele>
        <time>2005-05-11T09:16:31Z</time>
      </trkpt>
      <trkpt lat="45.67352" lon="6.31613">
        <ele>991</ele>
        <time>2005-05-11T09:16:39Z</time>
      </trkpt>
      <trkpt lat="45.67349" lon="6.31626">
        <ele>991</ele>
        <time>2005-05-11T09:16:43Z</time>
      </trkpt>
      <trkpt lat="45.67341" lon="6.3165">
        <ele>991</ele>
        <time>2005-05-11T09:16:50Z</time>
      </trkpt>
      <trkpt lat="45.67335" lon="6.31676">
        <ele>992</ele>
        <time>2005-05-11T09:16:58Z</time>
      </trkpt>
      <trkpt lat="45.67329" lon="6.31681">
        <ele>994</ele>
        <time>2005-05-11T09:17:04Z</time>
      </trkpt>
      <trkpt lat="45.67346" lon="6.3167">
        <ele>993</ele>
        <time>2005-05-11T09:20:31Z</time>
      </trkpt>
      <trkpt lat="45.67353" lon="6.31662">
        <ele>989</ele>
        <time>2005-05-11T09:20:36Z</time>
      </trkpt>
      <trkpt lat="45.67374" lon="6.31625">
        <ele>985</ele>
        <time>2005-05-11T09:20:45Z</time>
      </trkpt>
      <trkpt lat="45.67439" lon="6.31542">
        <ele>966</ele>
        <time>2005-05-11T09:21:16Z</time>
      </trkpt>
      <trkpt lat="45.6743" lon="6.31574">
        <ele>966</ele>
        <time>2005-05-11T09:21:21Z</time>
      </trkpt>
      <trkpt lat="45.67434" lon="6.31581">
        <ele>964</ele>
        <time>2005-05-11T09:21:25Z</time>
      </trkpt>
      <trkpt lat="45.67447" lon="6.31556">
        <ele>962</ele>
        <time>2005-05-11T09:21:31Z</time>
      </trkpt>
      <trkpt lat="45.6746" lon="6.31551">
        <ele>961</ele>
        <time>2005-05-11T09:21:35Z</time>
      </trkpt>
      <trkpt lat="45.67467" lon="6.31562">
        <ele>959</ele>
        <time>2005-05-11T09:21:39Z</time>
      </trkpt>
      <trkpt lat="45.6747" lon="6.31574">
        <ele>953</ele>
        <time>2005-05-11T09:21:43Z</time>
      </trkpt>
      <trkpt lat="45.67468" lon="6.31591">
        <ele>951</ele>
        <time>2005-05-11T09:21:46Z</time>
      </trkpt>
      <trkpt lat="45.67447" lon="6.31645">
        <ele>944</ele>
        <time>2005-05-11T09:21:52Z</time>
      </trkpt>
      <trkpt lat="45.67444" lon="6.31668">
        <ele>943</ele>
        <time>2005-05-11T09:21:54Z</time>
      </trkpt>
      <trkpt lat="45.67441" lon="6.31705">
        <ele>939</ele>
        <time>2005-05-11T09:22:06Z</time>
      </trkpt>
      <trkpt lat="45.67433" lon="6.31724">
        <ele>936</ele>
        <time>2005-05-11T09:22:10Z</time>
      </trkpt>
      <trkpt lat="45.67422" lon="6.31744">
        <ele>930</ele>
        <time>2005-05-11T09:22:16Z</time>
      </trkpt>
      <trkpt lat="45.67411" lon="6.31778">
        <ele>922</ele>
        <time>2005-05-11T09:22:24Z</time>
      </trkpt>
      <trkpt lat="45.67415" lon="6.31787">
        <ele>914</ele>
        <time>2005-05-11T09:22:30Z</time>
      </trkpt>
      <trkpt lat="45.67427" lon="6.31834">
        <ele>904</ele>
        <time>2005-05-11T09:22:42Z</time>
      </trkpt>
      <trkpt lat="45.67433" lon="6.31868">
        <ele>900</ele>
        <time>2005-05-11T09:22:47Z</time>
      </trkpt>
      <trkpt lat="45.67437" lon="6.31884">
        <ele>898</ele>
        <time>2005-05-11T09:22:49Z</time>
      </trkpt>
      <trkpt lat="45.67443" lon="6.31895">
        <ele>898</ele>
        <time>2005-05-11T09:22:51Z</time>
      </trkpt>
      <trkpt lat="45.6745" lon="6.3204">
        <ele>896</ele>
        <time>2005-05-11T09:22:54Z</time>
      </trkpt>
      <trkpt lat="45.67501" lon="6.32045">
        <ele>896</ele>
        <time>2005-05-11T09:22:58Z</time>
      </trkpt>
      <trkpt lat="45.67454" lon="6.31991">
        <ele>891</ele>
        <time>2005-05-11T09:23:16Z</time>
      </trkpt>
      <trkpt lat="45.67471" lon="6.32047">
        <ele>874</ele>
        <time>2005-05-11T09:23:29Z</time>
      </trkpt>
      <trkpt lat="45.67475" lon="6.32068">
        <ele>873</ele>
        <time>2005-05-11T09:23:31Z</time>
      </trkpt>
      <trkpt lat="45.67477" lon="6.32089">
        <ele>872</ele>
        <time>2005-05-11T09:23:33Z</time>
      </trkpt>
      <trkpt lat="45.67484" lon="6.3211">
        <ele>870</ele>
        <time>2005-05-11T09:23:35Z</time>
      </trkpt>
      <trkpt lat="45.67489" lon="6.32132">
        <ele>869</ele>
        <time>2005-05-11T09:23:37Z</time>
      </trkpt>
      <trkpt lat="45.67491" lon="6.3217">
        <ele>867</ele>
        <time>2005-05-11T09:23:41Z</time>
      </trkpt>
      <trkpt lat="45.67496" lon="6.32204">
        <ele>864</ele>
        <time>2005-05-11T09:23:47Z</time>
      </trkpt>
      <trkpt lat="45.67506" lon="6.32218">
        <ele>864</ele>
        <time>2005-05-11T09:23:49Z</time>
      </trkpt>
      <trkpt lat="45.67513" lon="6.32233">
        <ele>864</ele>
        <time>2005-05-11T09:23:52Z</time>
      </trkpt>
      <trkpt lat="45.67519" lon="6.32253">
        <ele>862</ele>
        <time>2005-05-11T09:23:55Z</time>
      </trkpt>
      <trkpt lat="45.67537" lon="6.32281">
        <ele>857</ele>
        <time>2005-05-11T09:24:00Z</time>
      </trkpt>
      <trkpt lat="45.67543" lon="6.32316">
        <ele>854</ele>
        <time>2005-05-11T09:24:04Z</time>
      </trkpt>
      <trkpt lat="45.67549" lon="6.32329">
        <ele>851</ele>
        <time>2005-05-11T09:24:06Z</time>
      </trkpt>
      <trkpt lat="45.67591" lon="6.32376">
        <ele>846</ele>
        <time>2005-05-11T09:24:14Z</time>
      </trkpt>
      <trkpt lat="45.67611" lon="6.32414">
        <ele>841</ele>
        <time>2005-05-11T09:24:20Z</time>
      </trkpt>
      <trkpt lat="45.67616" lon="6.32428">
        <ele>841</ele>
        <time>2005-05-11T09:24:22Z</time>
      </trkpt>
      <trkpt lat="45.67626" lon="6.32474">
        <ele>836</ele>
        <time>2005-05-11T09:24:28Z</time>
      </trkpt>
      <trkpt lat="45.67632" lon="6.3249">
        <ele>836</ele>
        <time>2005-05-11T09:24:30Z</time>
      </trkpt>
      <trkpt lat="45.67648" lon="6.32497">
        <ele>836</ele>
        <time>2005-05-11T09:24:38Z</time>
      </trkpt>
      <trkpt lat="45.67662" lon="6.32506">
        <ele>835</ele>
        <time>2005-05-11T09:24:45Z</time>
      </trkpt>
      <trkpt lat="45.67686" lon="6.3253">
        <ele>830</ele>
        <time>2005-05-11T09:24:49Z</time>
      </trkpt>
      <trkpt lat="45.67719" lon="6.32576">
        <ele>824</ele>
        <time>2005-05-11T09:24:54Z</time>
      </trkpt>
      <trkpt lat="45.67745" lon="6.32622">
        <ele>824</ele>
        <time>2005-05-11T09:25:00Z</time>
      </trkpt>
      <trkpt lat="45.67749" lon="6.32634">
        <ele>824</ele>
        <time>2005-05-11T09:25:03Z</time>
      </trkpt>
      <trkpt lat="45.6775" lon="6.32649">
        <ele>822</ele>
        <time>2005-05-11T09:25:07Z</time>
      </trkpt>
      <trkpt lat="45.67766" lon="6.32713">
        <ele>815</ele>
        <time>2005-05-11T09:25:16Z</time>
      </trkpt>
      <trkpt lat="45.67773" lon="6.32725">
        <ele>815</ele>
        <time>2005-05-11T09:25:18Z</time>
      </trkpt>
      <trkpt lat="45.67783" lon="6.32736">
        <ele>815</ele>
        <time>2005-05-11T09:25:21Z</time>
      </trkpt>
      <trkpt lat="45.67815" lon="6.32753">
        <ele>815</ele>
        <time>2005-05-11T09:25:32Z</time>
      </trkpt>
      <trkpt lat="45.67826" lon="6.32757">
        <ele>815</ele>
        <time>2005-05-11T09:25:35Z</time>
      </trkpt>
      <trkpt lat="45.67846" lon="6.32772">
        <ele>812</ele>
        <time>2005-05-11T09:25:41Z</time>
      </trkpt>
      <trkpt lat="45.67866" lon="6.32789">
        <ele>808</ele>
        <time>2005-05-11T09:25:46Z</time>
      </trkpt>
      <trkpt lat="45.67873" lon="6.32803">
        <ele>809</ele>
        <time>2005-05-11T09:25:48Z</time>
      </trkpt>
      <trkpt lat="45.67899" lon="6.32878">
        <ele>807</ele>
        <time>2005-05-11T09:26:05Z</time>
      </trkpt>
      <trkpt lat="45.67911" lon="6.32891">
        <ele>808</ele>
        <time>2005-05-11T09:26:07Z</time>
      </trkpt>
      <trkpt lat="45.67924" lon="6.329">
        <ele>809</ele>
        <time>2005-05-11T09:26:11Z</time>
      </trkpt>
      <trkpt lat="45.67961" lon="6.3293">
        <ele>811</ele>
        <time>2005-05-11T09:26:30Z</time>
      </trkpt>
      <trkpt lat="45.68002" lon="6.32981">
        <ele>813</ele>
        <time>2005-05-11T09:26:46Z</time>
      </trkpt>
      <trkpt lat="45.68045" lon="6.33049">
        <ele>812</ele>
        <time>2005-05-11T09:27:05Z</time>
      </trkpt>
      <trkpt lat="45.68066" lon="6.33071">
        <ele>813</ele>
        <time>2005-05-11T09:27:49Z</time>
      </trkpt>
      <trkpt lat="45.68104" lon="6.33131">
        <ele>808</ele>
        <time>2005-05-11T09:28:27Z</time>
      </trkpt>
      <trkpt lat="45.68112" lon="6.33148">
        <ele>807</ele>
        <time>2005-05-11T09:28:31Z</time>
      </trkpt>
      <trkpt lat="45.68128" lon="6.33171">
        <ele>799</ele>
        <time>2005-05-11T09:28:37Z</time>
      </trkpt>
      <trkpt lat="45.68147" lon="6.33187">
        <ele>794</ele>
        <time>2005-05-11T09:28:41Z</time>
      </trkpt>
      <trkpt lat="45.68156" lon="6.33198">
        <ele>789</ele>
        <time>2005-05-11T09:28:43Z</time>
      </trkpt>
      <trkpt lat="45.68167" lon="6.33248">
        <ele>787</ele>
        <time>2005-05-11T09:28:47Z</time>
      </trkpt>
      <trkpt lat="45.68175" lon="6.33273">
        <ele>787</ele>
        <time>2005-05-11T09:28:49Z</time>
      </trkpt>
      <trkpt lat="45.68226" lon="6.33376">
        <ele>791</ele>
        <time>2005-05-11T09:28:59Z</time>
      </trkpt>
      <trkpt lat="45.6823" lon="6.33394">
        <ele>789</ele>
        <time>2005-05-11T09:29:06Z</time>
      </trkpt>
      <trkpt lat="45.68207" lon="6.33437">
        <ele>777</ele>
        <time>2005-05-11T09:29:22Z</time>
      </trkpt>
      <trkpt lat="45.68202" lon="6.33453">
        <ele>777</ele>
        <time>2005-05-11T09:29:27Z</time>
      </trkpt>
      <trkpt lat="45.68215" lon="6.33498">
        <ele>780</ele>
        <time>2005-05-11T09:29:40Z</time>
      </trkpt>
      <trkpt lat="45.68227" lon="6.33536">
        <ele>781</ele>
        <time>2005-05-11T09:29:52Z</time>
      </trkpt>
      <trkpt lat="45.68233" lon="6.33583">
        <ele>774</ele>
        <time>2005-05-11T09:30:05Z</time>
      </trkpt>
      <trkpt lat="45.68245" lon="6.33627">
        <ele>768</ele>
        <time>2005-05-11T09:30:14Z</time>
      </trkpt>
      <trkpt lat="45.68242" lon="6.33633">
        <ele>764</ele>
        <time>2005-05-11T09:30:21Z</time>
      </trkpt>
      <trkpt lat="45.68235" lon="6.33627">
        <ele>759</ele>
        <time>2005-05-11T09:30:25Z</time>
      </trkpt>
      <trkpt lat="45.68222" lon="6.33621">
        <ele>754</ele>
        <time>2005-05-11T09:30:29Z</time>
      </trkpt>
      <trkpt lat="45.68196" lon="6.33595">
        <ele>744</ele>
        <time>2005-05-11T09:30:40Z</time>
      </trkpt>
      <trkpt lat="45.68186" lon="6.33591">
        <ele>740</ele>
        <time>2005-05-11T09:30:45Z</time>
      </trkpt>
      <trkpt lat="45.68186" lon="6.33603">
        <ele>737</ele>
        <time>2005-05-11T09:30:50Z</time>
      </trkpt>
      <trkpt lat="45.68192" lon="6.33615">
        <ele>738</ele>
        <time>2005-05-11T09:30:53Z</time>
      </trkpt>
      <trkpt lat="45.68195" lon="6.33637">
        <ele>733</ele>
        <time>2005-05-11T09:31:30Z</time>
      </trkpt>
      <trkpt lat="45.682" lon="6.33649">
        <ele>730</ele>
        <time>2005-05-11T09:31:36Z</time>
      </trkpt>
      <trkpt lat="45.68203" lon="6.33667">
        <ele>725</ele>
        <time>2005-05-11T09:31:41Z</time>
      </trkpt>
      <trkpt lat="45.6821" lon="6.33698">
        <ele>713</ele>
        <time>2005-05-11T09:31:50Z</time>
      </trkpt>
      <trkpt lat="45.68216" lon="6.33714">
        <ele>708</ele>
        <time>2005-05-11T09:31:54Z</time>
      </trkpt>
      <trkpt lat="45.68227" lon="6.33724">
        <ele>706</ele>
        <time>2005-05-11T09:31:56Z</time>
      </trkpt>
      <trkpt lat="45.68269" lon="6.33831">
        <ele>702</ele>
        <time>2005-05-11T09:31:58Z</time>
      </trkpt>
      <trkpt lat="45.68302" lon="6.33897">
        <ele>694</ele>
        <time>2005-05-11T09:32:06Z</time>
      </trkpt>
      <trkpt lat="45.68276" lon="6.33892">
        <ele>691</ele>
        <time>2005-05-11T09:32:08Z</time>
      </trkpt>
      <trkpt lat="45.68282" lon="6.33907">
        <ele>688</ele>
        <time>2005-05-11T09:32:10Z</time>
      </trkpt>
      <trkpt lat="45.6829" lon="6.33918">
        <ele>686</ele>
        <time>2005-05-11T09:32:12Z</time>
      </trkpt>
      <trkpt lat="45.68305" lon="6.33953">
        <ele>679</ele>
        <time>2005-05-11T09:32:18Z</time>
      </trkpt>
      <trkpt lat="45.68295" lon="6.33979">
        <ele>675</ele>
        <time>2005-05-11T09:32:20Z</time>
      </trkpt>
      <trkpt lat="45.68299" lon="6.33995">
        <ele>669</ele>
        <time>2005-05-11T09:32:23Z</time>
      </trkpt>
      <trkpt lat="45.68298" lon="6.34046">
        <ele>665</ele>
        <time>2005-05-11T09:32:25Z</time>
      </trkpt>
      <trkpt lat="45.68312" lon="6.3411">
        <ele>653</ele>
        <time>2005-05-11T09:32:33Z</time>
      </trkpt>
      <trkpt lat="45.6832" lon="6.34159">
        <ele>647</ele>
        <time>2005-05-11T09:32:39Z</time>
      </trkpt>
      <trkpt lat="45.68316" lon="6.34184">
        <ele>644</ele>
        <time>2005-05-11T09:32:41Z</time>
      </trkpt>
      <trkpt lat="45.68319" lon="6.34201">
        <ele>641</ele>
        <time>2005-05-11T09:32:44Z</time>
      </trkpt>
      <trkpt lat="45.6831" lon="6.34211">
        <ele>636</ele>
        <time>2005-05-11T09:32:48Z</time>
      </trkpt>
      <trkpt lat="45.68298" lon="6.34205">
        <ele>632</ele>
        <time>2005-05-11T09:32:51Z</time>
      </trkpt>
      <trkpt lat="45.68285" lon="6.34223">
        <ele>627</ele>
        <time>2005-05-11T09:32:55Z</time>
      </trkpt>
      <trkpt lat="45.68253" lon="6.34252">
        <ele>623</ele>
        <time>2005-05-11T09:32:58Z</time>
      </trkpt>
      <trkpt lat="45.68241" lon="6.34269">
        <ele>618</ele>
        <time>2005-05-11T09:33:02Z</time>
      </trkpt>
      <trkpt lat="45.68221" lon="6.34284">
        <ele>614</ele>
        <time>2005-05-11T09:33:04Z</time>
      </trkpt>
      <trkpt lat="45.68214" lon="6.34295">
        <ele>612</ele>
        <time>2005-05-11T09:33:06Z</time>
      </trkpt>
      <trkpt lat="45.68195" lon="6.34302">
        <ele>606</ele>
        <time>2005-05-11T09:33:14Z</time>
      </trkpt>
      <trkpt lat="45.68197" lon="6.34254">
        <ele>607</ele>
        <time>2005-05-11T09:34:25Z</time>
      </trkpt>
      <trkpt lat="45.68189" lon="6.34241">
        <ele>606</ele>
        <time>2005-05-11T09:34:29Z</time>
      </trkpt>
      <trkpt lat="45.6818" lon="6.34232">
        <ele>605</ele>
        <time>2005-05-11T09:34:32Z</time>
      </trkpt>
      <trkpt lat="45.68171" lon="6.34227">
        <ele>606</ele>
        <time>2005-05-11T09:34:35Z</time>
      </trkpt>
      <trkpt lat="45.68152" lon="6.34211">
        <ele>606</ele>
        <time>2005-05-11T09:34:41Z</time>
      </trkpt>
      <trkpt lat="45.68134" lon="6.3419">
        <ele>606</ele>
        <time>2005-05-11T09:34:47Z</time>
      </trkpt>
      <trkpt lat="45.68121" lon="6.34168">
        <ele>606</ele>
        <time>2005-05-11T09:34:53Z</time>
      </trkpt>
      <trkpt lat="45.68112" lon="6.34162">
        <ele>606</ele>
        <time>2005-05-11T09:34:57Z</time>
      </trkpt>
      <trkpt lat="45.681" lon="6.34161">
        <ele>605</ele>
        <time>2005-05-11T09:35:00Z</time>
      </trkpt>
      <trkpt lat="45.6809" lon="6.34167">
        <ele>603</ele>
        <time>2005-05-11T09:35:02Z</time>
      </trkpt>
      <trkpt lat="45.68077" lon="6.34168">
        <ele>600</ele>
        <time>2005-05-11T09:35:04Z</time>
      </trkpt>
      <trkpt lat="45.6805" lon="6.34151">
        <ele>596</ele>
        <time>2005-05-11T09:35:08Z</time>
      </trkpt>
      <trkpt lat="45.6802" lon="6.34126">
        <ele>595</ele>
        <time>2005-05-11T09:35:12Z</time>
      </trkpt>
      <trkpt lat="45.67949" lon="6.34075">
        <ele>586</ele>
        <time>2005-05-11T09:35:20Z</time>
      </trkpt>
      <trkpt lat="45.67938" lon="6.34071">
        <ele>584</ele>
        <time>2005-05-11T09:35:21Z</time>
      </trkpt>
      <trkpt lat="45.67927" lon="6.34069">
        <ele>582</ele>
        <time>2005-05-11T09:35:22Z</time>
      </trkpt>
      <trkpt lat="45.67896" lon="6.34071">
        <ele>581</ele>
        <time>2005-05-11T09:35:25Z</time>
      </trkpt>
      <trkpt lat="45.67888" lon="6.34074">
        <ele>581</ele>
        <time>2005-05-11T09:35:26Z</time>
      </trkpt>
      <trkpt lat="45.67875" lon="6.34084">
        <ele>581</ele>
        <time>2005-05-11T09:35:28Z</time>
      </trkpt>
      <trkpt lat="45.67867" lon="6.34092">
        <ele>582</ele>
        <time>2005-05-11T09:35:30Z</time>
      </trkpt>
      <trkpt lat="45.67863" lon="6.34104">
        <ele>584</ele>
        <time>2005-05-11T09:35:33Z</time>
      </trkpt>
      <trkpt lat="45.67864" lon="6.34111">
        <ele>585</ele>
        <time>2005-05-11T09:35:41Z</time>
      </trkpt>
      <trkpt lat="45.67872" lon="6.3412">
        <ele>583</ele>
        <time>2005-05-11T09:36:48Z</time>
      </trkpt>
      <trkpt lat="45.67879" lon="6.34132">
        <ele>585</ele>
        <time>2005-05-11T09:36:52Z</time>
      </trkpt>
      <trkpt lat="45.67916" lon="6.34213">
        <ele>585</ele>
        <time>2005-05-11T09:37:15Z</time>
      </trkpt>
      <trkpt lat="45.67885" lon="6.3425">
        <ele>568</ele>
        <time>2005-05-11T09:37:37Z</time>
      </trkpt>
      <trkpt lat="45.6786" lon="6.3427">
        <ele>563</ele>
        <time>2005-05-11T09:37:46Z</time>
      </trkpt>
      <trkpt lat="45.67852" lon="6.34285">
        <ele>563</ele>
        <time>2005-05-11T09:37:51Z</time>
      </trkpt>
      <trkpt lat="45.6785" lon="6.34303">
        <ele>563</ele>
        <time>2005-05-11T09:37:57Z</time>
      </trkpt>
      <trkpt lat="45.67856" lon="6.34341">
        <ele>563</ele>
        <time>2005-05-11T09:38:14Z</time>
      </trkpt>
      <trkpt lat="45.67858" lon="6.34368">
        <ele>561</ele>
        <time>2005-05-11T09:38:50Z</time>
      </trkpt>
      <trkpt lat="45.67875" lon="6.34414">
        <ele>558</ele>
        <time>2005-05-11T09:39:07Z</time>
      </trkpt>
      <trkpt lat="45.6789" lon="6.34437">
        <ele>556</ele>
        <time>2005-05-11T09:39:16Z</time>
      </trkpt>
      <trkpt lat="45.67912" lon="6.34493">
        <ele>541</ele>
        <time>2005-05-11T09:39:30Z</time>
      </trkpt>
      <trkpt lat="45.67919" lon="6.34559">
        <ele>530</ele>
        <time>2005-05-11T09:39:40Z</time>
      </trkpt>
      <trkpt lat="45.67917" lon="6.34576">
        <ele>529</ele>
        <time>2005-05-11T09:39:45Z</time>
      </trkpt>
      <trkpt lat="45.67905" lon="6.34627">
        <ele>530</ele>
        <time>2005-05-11T09:42:11Z</time>
      </trkpt>
      <trkpt lat="45.67909" lon="6.34642">
        <ele>530</ele>
        <time>2005-05-11T09:42:19Z</time>
      </trkpt>
      <trkpt lat="45.67909" lon="6.34657">
        <ele>530</ele>
        <time>2005-05-11T09:42:26Z</time>
      </trkpt>
      <trkpt lat="45.67905" lon="6.34672">
        <ele>531</ele>
        <time>2005-05-11T09:42:32Z</time>
      </trkpt>
      <trkpt lat="45.67895" lon="6.34694">
        <ele>531</ele>
        <time>2005-05-11T09:44:39Z</time>
      </trkpt>
      <trkpt lat="45.67902" lon="6.34711">
        <ele>527</ele>
        <time>2005-05-11T09:48:20Z</time>
      </trkpt>
      <trkpt lat="45.679" lon="6.34722">
        <ele>528</ele>
        <time>2005-05-11T09:48:25Z</time>
      </trkpt>
      <trkpt lat="45.67917" lon="6.34769">
        <ele>530</ele>
        <time>2005-05-11T09:48:46Z</time>
      </trkpt>
      <trkpt lat="45.67932" lon="6.34787">
        <ele>530</ele>
        <time>2005-05-11T09:48:56Z</time>
      </trkpt>
      <trkpt lat="45.67956" lon="6.34828">
        <ele>531</ele>
        <time>2005-05-11T09:49:14Z</time>
      </trkpt>
      <trkpt lat="45.67962" lon="6.3484">
        <ele>531</ele>
        <time>2005-05-11T09:49:18Z</time>
      </trkpt>
      <trkpt lat="45.67971" lon="6.34882">
        <ele>531</ele>
        <time>2005-05-11T09:49:31Z</time>
      </trkpt>
      <trkpt lat="45.67983" lon="6.34906">
        <ele>530</ele>
        <time>2005-05-11T09:49:39Z</time>
      </trkpt>
      <trkpt lat="45.67998" lon="6.34924">
        <ele>526</ele>
        <time>2005-05-11T09:49:46Z</time>
      </trkpt>
      <trkpt lat="45.68028" lon="6.34968">
        <ele>520</ele>
        <time>2005-05-11T09:49:58Z</time>
      </trkpt>
      <trkpt lat="45.68033" lon="6.34981">
        <ele>518</ele>
        <time>2005-05-11T09:50:01Z</time>
      </trkpt>
      <trkpt lat="45.6805" lon="6.3504">
        <ele>514</ele>
        <time>2005-05-11T09:50:49Z</time>
      </trkpt>
      <trkpt lat="45.68071" lon="6.35067">
        <ele>509</ele>
        <time>2005-05-11T09:50:58Z</time>
      </trkpt>
      <trkpt lat="45.68078" lon="6.3511">
        <ele>499</ele>
        <time>2005-05-11T09:51:07Z</time>
      </trkpt>
      <trkpt lat="45.68075" lon="6.35127">
        <ele>498</ele>
        <time>2005-05-11T09:51:10Z</time>
      </trkpt>
      <trkpt lat="45.68066" lon="6.35139">
        <ele>498</ele>
        <time>2005-05-11T09:51:13Z</time>
      </trkpt>
      <trkpt lat="45.68061" lon="6.35155">
        <ele>497</ele>
        <time>2005-05-11T09:51:17Z</time>
      </trkpt>
      <trkpt lat="45.68065" lon="6.35169">
        <ele>497</ele>
        <time>2005-05-11T09:51:21Z</time>
      </trkpt>
      <trkpt lat="45.6808" lon="6.3519">
        <ele>495</ele>
        <time>2005-05-11T09:51:28Z</time>
      </trkpt>
      <trkpt lat="45.68096" lon="6.35205">
        <ele>492</ele>
        <time>2005-05-11T09:51:34Z</time>
      </trkpt>
      <trkpt lat="45.68121" lon="6.35232">
        <ele>489</ele>
        <time>2005-05-11T09:51:43Z</time>
      </trkpt>
      <trkpt lat="45.68141" lon="6.35246">
        <ele>487</ele>
        <time>2005-05-11T09:51:48Z</time>
      </trkpt>
      <trkpt lat="45.68168" lon="6.35271">
        <ele>488</ele>
        <time>2005-05-11T09:51:55Z</time>
      </trkpt>
      <trkpt lat="45.68172" lon="6.35286">
        <ele>488</ele>
        <time>2005-05-11T09:51:59Z</time>
      </trkpt>
      <trkpt lat="45.68175" lon="6.35301">
        <ele>487</ele>
        <time>2005-05-11T09:52:02Z</time>
      </trkpt>
      <trkpt lat="45.68177" lon="6.35332">
        <ele>486</ele>
        <time>2005-05-11T09:52:08Z</time>
      </trkpt>
      <trkpt lat="45.68183" lon="6.35346">
        <ele>484</ele>
        <time>2005-05-11T09:52:11Z</time>
      </trkpt>
      <trkpt lat="45.68192" lon="6.35355">
        <ele>482</ele>
        <time>2005-05-11T09:52:14Z</time>
      </trkpt>
      <trkpt lat="45.68222" lon="6.35369">
        <ele>480</ele>
        <time>2005-05-11T09:52:20Z</time>
      </trkpt>
      <trkpt lat="45.6823" lon="6.35375">
        <ele>480</ele>
        <time>2005-05-11T09:52:22Z</time>
      </trkpt>
      <trkpt lat="45.68239" lon="6.35385">
        <ele>479</ele>
        <time>2005-05-11T09:52:25Z</time>
      </trkpt>
      <trkpt lat="45.68234" lon="6.35395">
        <ele>478</ele>
        <time>2005-05-11T09:52:41Z</time>
      </trkpt>
      <trkpt lat="45.68224" lon="6.35399">
        <ele>476</ele>
        <time>2005-05-11T09:52:44Z</time>
      </trkpt>
      <trkpt lat="45.68205" lon="6.35416">
        <ele>472</ele>
        <time>2005-05-11T09:52:49Z</time>
      </trkpt>
      <trkpt lat="45.68193" lon="6.35441">
        <ele>470</ele>
        <time>2005-05-11T09:52:55Z</time>
      </trkpt>
      <trkpt lat="45.68177" lon="6.35457">
        <ele>465</ele>
        <time>2005-05-11T09:52:59Z</time>
      </trkpt>
      <trkpt lat="45.68119" lon="6.35486">
        <ele>455</ele>
        <time>2005-05-11T09:53:09Z</time>
      </trkpt>
      <trkpt lat="45.68106" lon="6.35487">
        <ele>456</ele>
        <time>2005-05-11T09:53:11Z</time>
      </trkpt>
      <trkpt lat="45.68094" lon="6.35477">
        <ele>454</ele>
        <time>2005-05-11T09:53:13Z</time>
      </trkpt>
      <trkpt lat="45.6808" lon="6.35473">
        <ele>450</ele>
        <time>2005-05-11T09:53:15Z</time>
      </trkpt>
      <trkpt lat="45.68048" lon="6.35473">
        <ele>449</ele>
        <time>2005-05-11T09:53:19Z</time>
      </trkpt>
      <trkpt lat="45.68035" lon="6.35477">
        <ele>448</ele>
        <time>2005-05-11T09:53:21Z</time>
      </trkpt>
      <trkpt lat="45.68017" lon="6.3549">
        <ele>446</ele>
        <time>2005-05-11T09:53:25Z</time>
      </trkpt>
      <trkpt lat="45.68011" lon="6.35497">
        <ele>447</ele>
        <time>2005-05-11T09:53:30Z</time>
      </trkpt>
      <trkpt lat="45.67995" lon="6.35499">
        <ele>442</ele>
        <time>2005-05-11T09:59:10Z</time>
      </trkpt>
      <trkpt lat="45.67984" lon="6.35496">
        <ele>442</ele>
        <time>2005-05-11T09:59:13Z</time>
      </trkpt>
      <trkpt lat="45.67963" lon="6.35497">
        <ele>438</ele>
        <time>2005-05-11T09:59:17Z</time>
      </trkpt>
      <trkpt lat="45.67923" lon="6.35483">
        <ele>434</ele>
        <time>2005-05-11T09:59:23Z</time>
      </trkpt>
      <trkpt lat="45.67872" lon="6.35487">
        <ele>433</ele>
        <time>2005-05-11T09:59:32Z</time>
      </trkpt>
      <trkpt lat="45.67867" lon="6.35502">
        <ele>432</ele>
        <time>2005-05-11T09:59:37Z</time>
      </trkpt>
      <trkpt lat="45.67886" lon="6.3557">
        <ele>433</ele>
        <time>2005-05-11T09:59:52Z</time>
      </trkpt>
      <trkpt lat="45.67888" lon="6.35587">
        <ele>432</ele>
        <time>2005-05-11T09:59:55Z</time>
      </trkpt>
      <trkpt lat="45.67887" lon="6.35623">
        <ele>430</ele>
        <time>2005-05-11T10:00:00Z</time>
      </trkpt>
      <trkpt lat="45.67884" lon="6.3564">
        <ele>429</ele>
        <time>2005-05-11T10:00:02Z</time>
      </trkpt>
      <trkpt lat="45.67883" lon="6.35659">
        <ele>427</ele>
        <time>2005-05-11T10:00:04Z</time>
      </trkpt>
      <trkpt lat="45.67886" lon="6.35698">
        <ele>426</ele>
        <time>2005-05-11T10:00:08Z</time>
      </trkpt>
      <trkpt lat="45.67906" lon="6.35806">
        <ele>428</ele>
        <time>2005-05-11T10:00:22Z</time>
      </trkpt>
      <trkpt lat="45.67905" lon="6.35821">
        <ele>429</ele>
        <time>2005-05-11T10:00:25Z</time>
      </trkpt>
      <trkpt lat="45.67906" lon="6.35835">
        <ele>429</ele>
        <time>2005-05-11T10:00:28Z</time>
      </trkpt>
      <trkpt lat="45.67905" lon="6.35853">
        <ele>428</ele>
        <time>2005-05-11T10:00:31Z</time>
      </trkpt>
      <trkpt lat="45.67885" lon="6.35893">
        <ele>429</ele>
        <time>2005-05-11T10:00:39Z</time>
      </trkpt>
      <trkpt lat="45.67878" lon="6.35903">
        <ele>430</ele>
        <time>2005-05-11T10:00:42Z</time>
      </trkpt>
      <trkpt lat="45.67869" lon="6.35909">
        <ele>431</ele>
        <time>2005-05-11T10:00:45Z</time>
      </trkpt>
      <trkpt lat="45.6783" lon="6.35917">
        <ele>436</ele>
        <time>2005-05-11T10:01:06Z</time>
      </trkpt>
      <trkpt lat="45.67812" lon="6.35925">
        <ele>438</ele>
        <time>2005-05-11T10:01:18Z</time>
      </trkpt>
      <trkpt lat="45.67794" lon="6.35938">
        <ele>440</ele>
        <time>2005-05-11T10:01:30Z</time>
      </trkpt>
      <trkpt lat="45.67785" lon="6.35948">
        <ele>440</ele>
        <time>2005-05-11T10:01:35Z</time>
      </trkpt>
      <trkpt lat="45.67711" lon="6.36044">
        <ele>447</ele>
        <time>2005-05-11T10:02:25Z</time>
      </trkpt>
      <trkpt lat="45.67691" lon="6.36078">
        <ele>450</ele>
        <time>2005-05-11T10:02:43Z</time>
      </trkpt>
      <trkpt lat="45.67654" lon="6.36156">
        <ele>455</ele>
        <time>2005-05-11T10:03:18Z</time>
      </trkpt>
      <trkpt lat="45.67628" lon="6.36177">
        <ele>459</ele>
        <time>2005-05-11T10:03:33Z</time>
      </trkpt>
      <trkpt lat="45.67596" lon="6.36186">
        <ele>459</ele>
        <time>2005-05-11T10:03:47Z</time>
      </trkpt>
      <trkpt lat="45.67578" lon="6.362">
        <ele>457</ele>
        <time>2005-05-11T10:03:52Z</time>
      </trkpt>
      <trkpt lat="45.67573" lon="6.36213">
        <ele>456</ele>
        <time>2005-05-11T10:03:54Z</time>
      </trkpt>
      <trkpt lat="45.67569" lon="6.36246">
        <ele>459</ele>
        <time>2005-05-11T10:04:01Z</time>
      </trkpt>
      <trkpt lat="45.67569" lon="6.36278">
        <ele>458</ele>
        <time>2005-05-11T10:04:09Z</time>
      </trkpt>
      <trkpt lat="45.67573" lon="6.36306">
        <ele>459</ele>
        <time>2005-05-11T10:04:15Z</time>
      </trkpt>
      <trkpt lat="45.67589" lon="6.36357">
        <ele>461</ele>
        <time>2005-05-11T10:04:30Z</time>
      </trkpt>
      <trkpt lat="45.67609" lon="6.36407">
        <ele>460</ele>
        <time>2005-05-11T10:04:42Z</time>
      </trkpt>
      <trkpt lat="45.67637" lon="6.36558">
        <ele>473</ele>
        <time>2005-05-11T10:05:38Z</time>
      </trkpt>
      <trkpt lat="45.67647" lon="6.36629">
        <ele>476</ele>
        <time>2005-05-11T10:06:05Z</time>
      </trkpt>
      <trkpt lat="45.6765" lon="6.36656">
        <ele>476</ele>
        <time>2005-05-11T10:06:15Z</time>
      </trkpt>
      <trkpt lat="45.67665" lon="6.36736">
        <ele>478</ele>
        <time>2005-05-11T10:06:46Z</time>
      </trkpt>
      <trkpt lat="45.67672" lon="6.36762">
        <ele>477</ele>
        <time>2005-05-11T10:06:53Z</time>
      </trkpt>
      <trkpt lat="45.67692" lon="6.36815">
        <ele>477</ele>
        <time>2005-05-11T10:07:09Z</time>
      </trkpt>
      <trkpt lat="45.67728" lon="6.36917">
        <ele>478</ele>
        <time>2005-05-11T10:07:41Z</time>
      </trkpt>
      <trkpt lat="45.6773" lon="6.36932">
        <ele>478</ele>
        <time>2005-05-11T10:07:46Z</time>
      </trkpt>
      <trkpt lat="45.6778" lon="6.36976">
        <ele>483</ele>
        <time>2005-05-11T10:08:22Z</time>
      </trkpt>
      <trkpt lat="45.67795" lon="6.36992">
        <ele>485</ele>
        <time>2005-05-11T10:08:34Z</time>
      </trkpt>
      <trkpt lat="45.67839" lon="6.37047">
        <ele>492</ele>
        <time>2005-05-11T10:09:10Z</time>
      </trkpt>
      <trkpt lat="45.67858" lon="6.37081">
        <ele>494</ele>
        <time>2005-05-11T10:09:30Z</time>
      </trkpt>
      <trkpt lat="45.67871" lon="6.37136">
        <ele>494</ele>
        <time>2005-05-11T10:09:48Z</time>
      </trkpt>
      <trkpt lat="45.67875" lon="6.37148">
        <ele>493</ele>
        <time>2005-05-11T10:09:50Z</time>
      </trkpt>
      <trkpt lat="45.67912" lon="6.37202">
        <ele>487</ele>
        <time>2005-05-11T10:09:58Z</time>
      </trkpt>
      <trkpt lat="45.67924" lon="6.37217">
        <ele>486</ele>
        <time>2005-05-11T10:10:00Z</time>
      </trkpt>
      <trkpt lat="45.68058" lon="6.37334">
        <ele>472</ele>
        <time>2005-05-11T10:10:15Z</time>
      </trkpt>
      <trkpt lat="45.68154" lon="6.37422">
        <ele>481</ele>
        <time>2005-05-11T10:10:31Z</time>
      </trkpt>
      <trkpt lat="45.68163" lon="6.37436">
        <ele>480</ele>
        <time>2005-05-11T10:10:34Z</time>
      </trkpt>
      <trkpt lat="45.68174" lon="6.37463">
        <ele>478</ele>
        <time>2005-05-11T10:10:38Z</time>
      </trkpt>
      <trkpt lat="45.68174" lon="6.37479">
        <ele>476</ele>
        <time>2005-05-11T10:10:40Z</time>
      </trkpt>
      <trkpt lat="45.68172" lon="6.37492">
        <ele>477</ele>
        <time>2005-05-11T10:10:42Z</time>
      </trkpt>
      <trkpt lat="45.68175" lon="6.37503">
        <ele>476</ele>
        <time>2005-05-11T10:10:44Z</time>
      </trkpt>
      <trkpt lat="45.68184" lon="6.37509">
        <ele>473</ele>
        <time>2005-05-11T10:10:46Z</time>
      </trkpt>
      <trkpt lat="45.68199" lon="6.37506">
        <ele>470</ele>
        <time>2005-05-11T10:10:48Z</time>
      </trkpt>
      <trkpt lat="45.68299" lon="6.37529">
        <ele>469</ele>
        <time>2005-05-11T10:11:04Z</time>
      </trkpt>
      <trkpt lat="45.68269" lon="6.37569">
        <ele>472</ele>
        <time>2005-05-11T10:11:24Z</time>
      </trkpt>
      <trkpt lat="45.68236" lon="6.37595">
        <ele>474</ele>
        <time>2005-05-11T10:11:37Z</time>
      </trkpt>
      <trkpt lat="45.68211" lon="6.37627">
        <ele>476</ele>
        <time>2005-05-11T10:11:50Z</time>
      </trkpt>
      <trkpt lat="45.6818" lon="6.3765">
        <ele>475</ele>
        <time>2005-05-11T10:12:05Z</time>
      </trkpt>
      <trkpt lat="45.68175" lon="6.37661">
        <ele>471</ele>
        <time>2005-05-11T10:12:09Z</time>
      </trkpt>
      <trkpt lat="45.6817" lon="6.37677">
        <ele>468</ele>
        <time>2005-05-11T10:12:13Z</time>
      </trkpt>
      <trkpt lat="45.68159" lon="6.37774">
        <ele>472</ele>
        <time>2005-05-11T10:12:33Z</time>
      </trkpt>
      <trkpt lat="45.68157" lon="6.37813">
        <ele>472</ele>
        <time>2005-05-11T10:12:40Z</time>
      </trkpt>
      <trkpt lat="45.68157" lon="6.37886">
        <ele>470</ele>
        <time>2005-05-11T10:12:56Z</time>
      </trkpt>
      <trkpt lat="45.68152" lon="6.37928">
        <ele>467</ele>
        <time>2005-05-11T10:13:02Z</time>
      </trkpt>
      <trkpt lat="45.68152" lon="6.37946">
        <ele>468</ele>
        <time>2005-05-11T10:13:04Z</time>
      </trkpt>
      <trkpt lat="45.68162" lon="6.38033">
        <ele>470</ele>
        <time>2005-05-11T10:13:22Z</time>
      </trkpt>
      <trkpt lat="45.68171" lon="6.38088">
        <ele>471</ele>
        <time>2005-05-11T10:13:37Z</time>
      </trkpt>
      <trkpt lat="45.68171" lon="6.3814">
        <ele>468</ele>
        <time>2005-05-11T10:13:50Z</time>
      </trkpt>
      <trkpt lat="45.68164" lon="6.38153">
        <ele>468</ele>
        <time>2005-05-11T10:13:55Z</time>
      </trkpt>
      <trkpt lat="45.68155" lon="6.38158">
        <ele>469</ele>
        <time>2005-05-11T10:14:01Z</time>
      </trkpt>
      <trkpt lat="45.68144" lon="6.38159">
        <ele>470</ele>
        <time>2005-05-11T10:14:07Z</time>
      </trkpt>
      <trkpt lat="45.68134" lon="6.38157">
        <ele>472</ele>
        <time>2005-05-11T10:14:13Z</time>
      </trkpt>
      <trkpt lat="45.68125" lon="6.38151">
        <ele>472</ele>
        <time>2005-05-11T10:14:19Z</time>
      </trkpt>
      <trkpt lat="45.68116" lon="6.38157">
        <ele>474</ele>
        <time>2005-05-11T10:14:24Z</time>
      </trkpt>
      <trkpt lat="45.68087" lon="6.38204">
        <ele>473</ele>
        <time>2005-05-11T10:14:43Z</time>
      </trkpt>
      <trkpt lat="45.68064" lon="6.38231">
        <ele>466</ele>
        <time>2005-05-11T10:14:47Z</time>
      </trkpt>
      <trkpt lat="45.68054" lon="6.38248">
        <ele>463</ele>
        <time>2005-05-11T10:14:49Z</time>
      </trkpt>
      <trkpt lat="45.68028" lon="6.38313">
        <ele>456</ele>
        <time>2005-05-11T10:14:57Z</time>
      </trkpt>
      <trkpt lat="45.68009" lon="6.38356">
        <ele>456</ele>
        <time>2005-05-11T10:15:04Z</time>
      </trkpt>
      <trkpt lat="45.67993" lon="6.38379">
        <ele>448</ele>
        <time>2005-05-11T10:15:10Z</time>
      </trkpt>
      <trkpt lat="45.67979" lon="6.38408">
        <ele>446</ele>
        <time>2005-05-11T10:15:16Z</time>
      </trkpt>
      <trkpt lat="45.67966" lon="6.38447">
        <ele>442</ele>
        <time>2005-05-11T10:15:26Z</time>
      </trkpt>
      <trkpt lat="45.67962" lon="6.38474">
        <ele>437</ele>
        <time>2005-05-11T10:15:35Z</time>
      </trkpt>
      <trkpt lat="45.67963" lon="6.38489">
        <ele>433</ele>
        <time>2005-05-11T10:15:40Z</time>
      </trkpt>
      <trkpt lat="45.67955" lon="6.3852">
        <ele>426</ele>
        <time>2005-05-11T10:15:46Z</time>
      </trkpt>
      <trkpt lat="45.67959" lon="6.38569">
        <ele>424</ele>
        <time>2005-05-11T10:15:55Z</time>
      </trkpt>
      <trkpt lat="45.67955" lon="6.38598">
        <ele>423</ele>
        <time>2005-05-11T10:16:02Z</time>
      </trkpt>
      <trkpt lat="45.67956" lon="6.3869">
        <ele>414</ele>
        <time>2005-05-11T10:16:23Z</time>
      </trkpt>
      <trkpt lat="45.67952" lon="6.38724">
        <ele>409</ele>
        <time>2005-05-11T10:16:29Z</time>
      </trkpt>
      <trkpt lat="45.67954" lon="6.3874">
        <ele>407</ele>
        <time>2005-05-11T10:16:32Z</time>
      </trkpt>
      <trkpt lat="45.67959" lon="6.38753">
        <ele>404</ele>
        <time>2005-05-11T10:16:35Z</time>
      </trkpt>
      <trkpt lat="45.67961" lon="6.38766">
        <ele>401</ele>
        <time>2005-05-11T10:16:38Z</time>
      </trkpt>
      <trkpt lat="45.67964" lon="6.38814">
        <ele>396</ele>
        <time>2005-05-11T10:16:45Z</time>
      </trkpt>
      <trkpt lat="45.67963" lon="6.38833">
        <ele>392</ele>
        <time>2005-05-11T10:16:48Z</time>
      </trkpt>
      <trkpt lat="45.67961" lon="6.38851">
        <ele>391</ele>
        <time>2005-05-11T10:16:51Z</time>
      </trkpt>
      <trkpt lat="45.67966" lon="6.38866">
        <ele>390</ele>
        <time>2005-05-11T10:16:54Z</time>
      </trkpt>
      <trkpt lat="45.67966" lon="6.38879">
        <ele>388</ele>
        <time>2005-05-11T10:16:58Z</time>
      </trkpt>
      <trkpt lat="45.67952" lon="6.38898">
        <ele>383</ele>
        <time>2005-05-11T10:17:06Z</time>
      </trkpt>
      <trkpt lat="45.67941" lon="6.3891">
        <ele>381</ele>
        <time>2005-05-11T10:17:09Z</time>
      </trkpt>
      <trkpt lat="45.67934" lon="6.38922">
        <ele>379</ele>
        <time>2005-05-11T10:17:11Z</time>
      </trkpt>
      <trkpt lat="45.67932" lon="6.38947">
        <ele>376</ele>
        <time>2005-05-11T10:17:17Z</time>
      </trkpt>
      <trkpt lat="45.67936" lon="6.38962">
        <ele>377</ele>
        <time>2005-05-11T10:17:25Z</time>
      </trkpt>
      <trkpt lat="45.67961" lon="6.38993">
        <ele>380</ele>
        <time>2005-05-11T10:17:40Z</time>
      </trkpt>
      <trkpt lat="45.67968" lon="6.39006">
        <ele>381</ele>
        <time>2005-05-11T10:17:45Z</time>
      </trkpt>
      <trkpt lat="45.68036" lon="6.39157">
        <ele>386</ele>
        <time>2005-05-11T10:18:37Z</time>
      </trkpt>
      <trkpt lat="45.68044" lon="6.39164">
        <ele>386</ele>
        <time>2005-05-11T10:18:41Z</time>
      </trkpt>
      <trkpt lat="45.68054" lon="6.39168">
        <ele>387</ele>
        <time>2005-05-11T10:18:46Z</time>
      </trkpt>
      <trkpt lat="45.68072" lon="6.39169">
        <ele>388</ele>
        <time>2005-05-11T10:18:54Z</time>
      </trkpt>
      <trkpt lat="45.68076" lon="6.39182">
        <ele>388</ele>
        <time>2005-05-11T10:18:58Z</time>
      </trkpt>
      <trkpt lat="45.68068" lon="6.39198">
        <ele>384</ele>
        <time>2005-05-11T10:19:01Z</time>
      </trkpt>
      <trkpt lat="45.68059" lon="6.39208">
        <ele>383</ele>
        <time>2005-05-11T10:19:03Z</time>
      </trkpt>
      <trkpt lat="45.68046" lon="6.39215">
        <ele>381</ele>
        <time>2005-05-11T10:19:05Z</time>
      </trkpt>
      <trkpt lat="45.67999" lon="6.3923">
        <ele>376</ele>
        <time>2005-05-11T10:19:11Z</time>
      </trkpt>
      <trkpt lat="45.67969" lon="6.39236">
        <ele>376</ele>
        <time>2005-05-11T10:19:15Z</time>
      </trkpt>
      <trkpt lat="45.67939" lon="6.39238">
        <ele>376</ele>
        <time>2005-05-11T10:19:19Z</time>
      </trkpt>
      <trkpt lat="45.67926" lon="6.39235">
        <ele>376</ele>
        <time>2005-05-11T10:19:21Z</time>
      </trkpt>
      <trkpt lat="45.67914" lon="6.39229">
        <ele>375</ele>
        <time>2005-05-11T10:19:23Z</time>
      </trkpt>
      <trkpt lat="45.67886" lon="6.39205">
        <ele>371</ele>
        <time>2005-05-11T10:19:31Z</time>
      </trkpt>
      <trkpt lat="45.67873" lon="6.39199">
        <ele>369</ele>
        <time>2005-05-11T10:19:33Z</time>
      </trkpt>
      <trkpt lat="45.67798" lon="6.39176">
        <ele>360</ele>
        <time>2005-05-11T10:19:43Z</time>
      </trkpt>
      <trkpt lat="45.67748" lon="6.39176">
        <ele>358</ele>
        <time>2005-05-11T10:19:51Z</time>
      </trkpt>
      <trkpt lat="45.67751" lon="6.39187">
        <ele>358</ele>
        <time>2005-05-11T10:19:59Z</time>
      </trkpt>
      <trkpt lat="45.6778" lon="6.39225">
        <ele>357</ele>
        <time>2005-05-11T10:20:11Z</time>
      </trkpt>
      <trkpt lat="45.678" lon="6.39256">
        <ele>357</ele>
        <time>2005-05-11T10:20:19Z</time>
      </trkpt>
      <trkpt lat="45.67804" lon="6.39274">
        <ele>358</ele>
        <time>2005-05-11T10:20:23Z</time>
      </trkpt>
      <trkpt lat="45.678" lon="6.39307">
        <ele>357</ele>
        <time>2005-05-11T10:20:31Z</time>
      </trkpt>
      <trkpt lat="45.67798" lon="6.3934">
        <ele>359</ele>
        <time>2005-05-11T10:20:38Z</time>
      </trkpt>
      <trkpt lat="45.67799" lon="6.39372">
        <ele>360</ele>
        <time>2005-05-11T10:20:45Z</time>
      </trkpt>
      <trkpt lat="45.67807" lon="6.39381">
        <ele>360</ele>
        <time>2005-05-11T10:22:03Z</time>
      </trkpt>
      <trkpt lat="45.67806" lon="6.39398">
        <ele>359</ele>
        <time>2005-05-11T10:22:06Z</time>
      </trkpt>
      <trkpt lat="45.67799" lon="6.39409">
        <ele>360</ele>
        <time>2005-05-11T10:22:09Z</time>
      </trkpt>
      <trkpt lat="45.67788" lon="6.39415">
        <ele>360</ele>
        <time>2005-05-11T10:22:12Z</time>
      </trkpt>
      <trkpt lat="45.67738" lon="6.39414">
        <ele>359</ele>
        <time>2005-05-11T10:22:24Z</time>
      </trkpt>
      <trkpt lat="45.67671" lon="6.39389">
        <ele>352</ele>
        <time>2005-05-11T10:22:39Z</time>
      </trkpt>
      <trkpt lat="45.6763" lon="6.39396">
        <ele>355</ele>
        <time>2005-05-11T10:22:45Z</time>
      </trkpt>
      <trkpt lat="45.67604" lon="6.39384">
        <ele>356</ele>
        <time>2005-05-11T10:22:51Z</time>
      </trkpt>
      <trkpt lat="45.67565" lon="6.3937">
        <ele>355</ele>
        <time>2005-05-11T10:23:00Z</time>
      </trkpt>
      <trkpt lat="45.67544" lon="6.39356">
        <ele>356</ele>
        <time>2005-05-11T10:23:06Z</time>
      </trkpt>
      <trkpt lat="45.67507" lon="6.3934">
        <ele>356</ele>
        <time>2005-05-11T10:23:15Z</time>
      </trkpt>
      <trkpt lat="45.6746" lon="6.39323">
        <ele>356</ele>
        <time>2005-05-11T10:23:25Z</time>
      </trkpt>
      <trkpt lat="45.6745" lon="6.39322">
        <ele>355</ele>
        <time>2005-05-11T10:23:27Z</time>
      </trkpt>
      <trkpt lat="45.6725" lon="6.39262">
        <ele>354</ele>
        <time>2005-05-11T10:24:07Z</time>
      </trkpt>
      <trkpt lat="45.67093" lon="6.39217">
        <ele>353</ele>
        <time>2005-05-11T10:24:39Z</time>
      </trkpt>
      <trkpt lat="45.67064" lon="6.3921">
        <ele>353</ele>
        <time>2005-05-11T10:24:45Z</time>
      </trkpt>
      <trkpt lat="45.66932" lon="6.39171">
        <ele>352</ele>
        <time>2005-05-11T10:25:11Z</time>
      </trkpt>
      <trkpt lat="45.66855" lon="6.3915">
        <ele>348</ele>
        <time>2005-05-11T10:25:25Z</time>
      </trkpt>
      <trkpt lat="45.6678" lon="6.39125">
        <ele>351</ele>
        <time>2005-05-11T10:25:41Z</time>
      </trkpt>
      <trkpt lat="45.66682" lon="6.39096">
        <ele>350</ele>
        <time>2005-05-11T10:26:02Z</time>
      </trkpt>
      <trkpt lat="45.66673" lon="6.39099">
        <ele>351</ele>
        <time>2005-05-11T10:26:04Z</time>
      </trkpt>
      <trkpt lat="45.66665" lon="6.39104">
        <ele>351</ele>
        <time>2005-05-11T10:26:06Z</time>
      </trkpt>
      <trkpt lat="45.66654" lon="6.39107">
        <ele>350</ele>
        <time>2005-05-11T10:26:08Z</time>
      </trkpt>
      <trkpt lat="45.6664" lon="6.39106">
        <ele>347</ele>
        <time>2005-05-11T10:26:10Z</time>
      </trkpt>
      <trkpt lat="45.66586" lon="6.39085">
        <ele>346</ele>
        <time>2005-05-11T10:26:18Z</time>
      </trkpt>
      <trkpt lat="45.66547" lon="6.39067">
        <ele>347</ele>
        <time>2005-05-11T10:26:26Z</time>
      </trkpt>
      <trkpt lat="45.66538" lon="6.3906">
        <ele>346</ele>
        <time>2005-05-11T10:26:28Z</time>
      </trkpt>
      <trkpt lat="45.66531" lon="6.39048">
        <ele>346</ele>
        <time>2005-05-11T10:26:30Z</time>
      </trkpt>
      <trkpt lat="45.6653" lon="6.39033">
        <ele>347</ele>
        <time>2005-05-11T10:26:32Z</time>
      </trkpt>
      <trkpt lat="45.66532" lon="6.39018">
        <ele>347</ele>
        <time>2005-05-11T10:26:34Z</time>
      </trkpt>
      <trkpt lat="45.66536" lon="6.39005">
        <ele>346</ele>
        <time>2005-05-11T10:26:36Z</time>
      </trkpt>
      <trkpt lat="45.66543" lon="6.38994">
        <ele>347</ele>
        <time>2005-05-11T10:26:38Z</time>
      </trkpt>
      <trkpt lat="45.66539" lon="6.38981">
        <ele>346</ele>
        <time>2005-05-11T10:26:40Z</time>
      </trkpt>
      <trkpt lat="45.66541" lon="6.38952">
        <ele>346</ele>
        <time>2005-05-11T10:26:44Z</time>
      </trkpt>
      <trkpt lat="45.66539" lon="6.38937">
        <ele>346</ele>
        <time>2005-05-11T10:26:46Z</time>
      </trkpt>
      <trkpt lat="45.66529" lon="6.38912">
        <ele>348</ele>
        <time>2005-05-11T10:26:50Z</time>
      </trkpt>
      <trkpt lat="45.66531" lon="6.3887">
        <ele>348</ele>
        <time>2005-05-11T10:26:56Z</time>
      </trkpt>
      <trkpt lat="45.66523" lon="6.38787">
        <ele>348</ele>
        <time>2005-05-11T10:27:08Z</time>
      </trkpt>
      <trkpt lat="45.66514" lon="6.38747">
        <ele>348</ele>
        <time>2005-05-11T10:27:14Z</time>
      </trkpt>
      <trkpt lat="45.66513" lon="6.38733">
        <ele>348</ele>
        <time>2005-05-11T10:27:16Z</time>
      </trkpt>
      <trkpt lat="45.66515" lon="6.38714">
        <ele>348</ele>
        <time>2005-05-11T10:27:19Z</time>
      </trkpt>
      <trkpt lat="45.66569" lon="6.38696">
        <ele>348</ele>
        <time>2005-05-11T10:27:29Z</time>
      </trkpt>
      <trkpt lat="45.66578" lon="6.38691">
        <ele>347</ele>
        <time>2005-05-11T10:27:31Z</time>
      </trkpt>
      <trkpt lat="45.66586" lon="6.38681">
        <ele>348</ele>
        <time>2005-05-11T10:27:33Z</time>
      </trkpt>
      <trkpt lat="45.66589" lon="6.38668">
        <ele>349</ele>
        <time>2005-05-11T10:27:35Z</time>
      </trkpt>
      <trkpt lat="45.66589" lon="6.38653">
        <ele>348</ele>
        <time>2005-05-11T10:27:37Z</time>
      </trkpt>
      <trkpt lat="45.66571" lon="6.3854">
        <ele>346</ele>
        <time>2005-05-11T10:27:51Z</time>
      </trkpt>
      <trkpt lat="45.66562" lon="6.38508">
        <ele>346</ele>
        <time>2005-05-11T10:27:55Z</time>
      </trkpt>
      <trkpt lat="45.6653" lon="6.38414">
        <ele>347</ele>
        <time>2005-05-11T10:28:09Z</time>
      </trkpt>
      <trkpt lat="45.66516" lon="6.38357">
        <ele>347</ele>
        <time>2005-05-11T10:28:30Z</time>
      </trkpt>
      <trkpt lat="45.66454" lon="6.38146">
        <ele>346</ele>
        <time>2005-05-11T10:29:02Z</time>
      </trkpt>
      <trkpt lat="45.66438" lon="6.38079">
        <ele>345</ele>
        <time>2005-05-11T10:29:12Z</time>
      </trkpt>
      <trkpt lat="45.66434" lon="6.3805">
        <ele>345</ele>
        <time>2005-05-11T10:29:16Z</time>
      </trkpt>
      <trkpt lat="45.66428" lon="6.37991">
        <ele>344</ele>
        <time>2005-05-11T10:29:24Z</time>
      </trkpt>
      <trkpt lat="45.66427" lon="6.37932">
        <ele>344</ele>
        <time>2005-05-11T10:29:32Z</time>
      </trkpt>
      <trkpt lat="45.66431" lon="6.3786">
        <ele>344</ele>
        <time>2005-05-11T10:29:42Z</time>
      </trkpt>
      <trkpt lat="45.6643" lon="6.37814">
        <ele>346</ele>
        <time>2005-05-11T10:29:51Z</time>
      </trkpt>
      <trkpt lat="45.66427" lon="6.378">
        <ele>345</ele>
        <time>2005-05-11T10:29:54Z</time>
      </trkpt>
      <trkpt lat="45.66396" lon="6.37726">
        <ele>343</ele>
        <time>2005-05-11T10:30:07Z</time>
      </trkpt>
      <trkpt lat="45.66385" lon="6.37684">
        <ele>343</ele>
        <time>2005-05-11T10:30:13Z</time>
      </trkpt>
      <trkpt lat="45.66374" lon="6.37595">
        <ele>343</ele>
        <time>2005-05-11T10:30:25Z</time>
      </trkpt>
      <trkpt lat="45.66375" lon="6.37581">
        <ele>343</ele>
        <time>2005-05-11T10:30:27Z</time>
      </trkpt>
      <trkpt lat="45.66373" lon="6.37566">
        <ele>343</ele>
        <time>2005-05-11T10:30:29Z</time>
      </trkpt>
      <trkpt lat="45.66366" lon="6.37554">
        <ele>342</ele>
        <time>2005-05-11T10:30:31Z</time>
      </trkpt>
      <trkpt lat="45.66357" lon="6.37545">
        <ele>342</ele>
        <time>2005-05-11T10:30:33Z</time>
      </trkpt>
      <trkpt lat="45.66351" lon="6.37532">
        <ele>342</ele>
        <time>2005-05-11T10:30:35Z</time>
      </trkpt>
      <trkpt lat="45.66318" lon="6.3743">
        <ele>342</ele>
        <time>2005-05-11T10:30:49Z</time>
      </trkpt>
      <trkpt lat="45.66307" lon="6.37404">
        <ele>342</ele>
        <time>2005-05-11T10:30:53Z</time>
      </trkpt>
      <trkpt lat="45.66266" lon="6.3732">
        <ele>342</ele>
        <time>2005-05-11T10:31:07Z</time>
      </trkpt>
      <trkpt lat="45.66264" lon="6.37306">
        <ele>342</ele>
        <time>2005-05-11T10:31:09Z</time>
      </trkpt>
      <trkpt lat="45.66267" lon="6.37294">
        <ele>343</ele>
        <time>2005-05-11T10:31:11Z</time>
      </trkpt>
      <trkpt lat="45.66277" lon="6.37283">
        <ele>342</ele>
        <time>2005-05-11T10:31:14Z</time>
      </trkpt>
      <trkpt lat="45.66314" lon="6.37268">
        <ele>345</ele>
        <time>2005-05-11T10:31:28Z</time>
      </trkpt>
    </trkseg>
  </trk>
</gpx>